Observation data for Amarillo 7 South Southeast on 07/19/2019      Previous  Date  Next       Current Mesonet Observations  Soil Data  Daily Summary Page  Observations in Plain Language
KAM1 190500Z 16008KT 28/14 A2993 RMK A01 T02790144  RH  044%=      5-min Rain = 0
KAM1 190501Z 16010KT 28/14 A2993 RMK A01 T02790144  RH  044%=      5-min Rain = 0
KAM1 190502Z 16010KT 28/14 A2993 RMK A01 T02780144  RH  044%=      5-min Rain = 0
KAM1 190503Z 17009KT 28/14 A2993 RMK A01 T02780144  RH  044%=      5-min Rain = 0
KAM1 190504Z 16009KT 28/14 A2994 RMK A01 T02780144  RH  044%=      5-min Rain = 0
KAM1 190505Z 16009KT 28/14 A2994 RMK A01 T02770144  RH  044%=      5-min Rain = 0
KAM1 190506Z 16009KT 28/14 A2994 RMK A01 T02770144  RH  044%=      5-min Rain = 0
KAM1 190507Z 16009KT 28/14 A2994 RMK A01 T02770144  RH  044%=      5-min Rain = 0
KAM1 190508Z 16010KT 28/14 A2994 RMK A01 T02770143  RH  044%=      5-min Rain = 0
KAM1 190509Z 16010KT 28/14 A2994 RMK A01 T02770143  RH  044%=      5-min Rain = 0
KAM1 190510Z 16009KT 28/14 A2994 RMK A01 T02770143  RH  044%=      5-min Rain = 0
KAM1 190511Z 16009KT 28/14 A2993 RMK A01 T02770143  RH  044%=      5-min Rain = 0
KAM1 190512Z 16010KT 28/14 A2994 RMK A01 T02770143  RH  044%=      5-min Rain = 0
KAM1 190513Z 16008KT 28/14 A2994 RMK A01 T02770143  RH  044%=      5-min Rain = 0
KAM1 190514Z 16010KT 28/14 A2994 RMK A01 T02760143  RH  044%=      5-min Rain = 0
KAM1 190515Z 16009KT 28/14 A2994 RMK A01 T02750143  RH  044%=      5-min Rain = 0
KAM1 190516Z 16009KT 28/14 A2994 RMK A01 T02750143  RH  044%=      5-min Rain = 0
KAM1 190517Z 16010KT 28/14 A2994 RMK A01 T02750143  RH  044%=      5-min Rain = 0
KAM1 190518Z 17008KT 28/14 A2994 RMK A01 T02750142  RH  044%=      5-min Rain = 0
KAM1 190519Z 17009KT 28/14 A2994 RMK A01 T02750142  RH  044%=      5-min Rain = 0
KAM1 190520Z 17009KT 27/14 A2994 RMK A01 T02740143  RH  044%=      5-min Rain = 0
KAM1 190521Z 16008KT 27/14 A2994 RMK A01 T02740143  RH  045%=      5-min Rain = 0
KAM1 190522Z 17009KT 27/14 A2994 RMK A01 T02730142  RH  045%=      5-min Rain = 0
KAM1 190523Z 17008KT 27/14 A2994 RMK A01 T02720142  RH  045%=      5-min Rain = 0
KAM1 190524Z 16010KT 27/14 A2994 RMK A01 T02720142  RH  045%=      5-min Rain = 0
KAM1 190525Z 17009KT 27/14 A2994 RMK A01 T02720142  RH  045%=      5-min Rain = 0
KAM1 190526Z 17009KT 27/14 A2994 RMK A01 T02720142  RH  045%=      5-min Rain = 0
KAM1 190527Z 17009KT 27/14 A2994 RMK A01 T02730142  RH  045%=      5-min Rain = 0
KAM1 190528Z 17009KT 27/14 A2994 RMK A01 T02720142  RH  045%=      5-min Rain = 0
KAM1 190529Z 17010KT 27/14 A2994 RMK A01 T02730142  RH  045%=      5-min Rain = 0
KAM1 190530Z 17009KT 27/14 A2994 RMK A01 T02730142  RH  045%=      5-min Rain = 0
KAM1 190531Z 17009KT 27/14 A2994 RMK A01 T02730143  RH  045%=      5-min Rain = 0
KAM1 190532Z 17008KT 27/14 A2994 RMK A01 T02720143  RH  045%=      5-min Rain = 0
KAM1 190533Z 17009KT 27/14 A2994 RMK A01 T02720143  RH  045%=      5-min Rain = 0
KAM1 190534Z 17008KT 27/14 A2994 RMK A01 T02720143  RH  045%=      5-min Rain = 0
KAM1 190535Z 17009KT 27/14 A2994 RMK A01 T02710143  RH  045%=      5-min Rain = 0
KAM1 190536Z 17009KT 27/14 A2994 RMK A01 T02710143  RH  045%=      5-min Rain = 0
KAM1 190537Z 17009KT 27/14 A2994 RMK A01 T02700143  RH  046%=      5-min Rain = 0
KAM1 190538Z 17008KT 27/14 A2994 RMK A01 T02700143  RH  046%=      5-min Rain = 0
KAM1 190539Z 17009KT 27/14 A2994 RMK A01 T02700143  RH  046%=      5-min Rain = 0
KAM1 190540Z 17009KT 27/14 A2994 RMK A01 T02700143  RH  045%=      5-min Rain = 0
KAM1 190541Z 17009KT 27/14 A2994 RMK A01 T02710142  RH  045%=      5-min Rain = 0
KAM1 190542Z 17009KT 27/14 A2994 RMK A01 T02710142  RH  045%=      5-min Rain = 0
KAM1 190543Z 17009KT 27/14 A2994 RMK A01 T02710142  RH  045%=      5-min Rain = 0
KAM1 190544Z 17009KT 27/14 A2994 RMK A01 T02710142  RH  045%=      5-min Rain = 0
KAM1 190545Z 17009KT 27/14 A2994 RMK A01 T02700142  RH  045%=      5-min Rain = 0
KAM1 190546Z 17008KT 27/14 A2994 RMK A01 T02700142  RH  045%=      5-min Rain = 0
KAM1 190547Z 17009KT 27/14 A2994 RMK A01 T02690142  RH  045%=      5-min Rain = 0
KAM1 190548Z 17010KT 27/14 A2994 RMK A01 T02690142  RH  046%=      5-min Rain = 0
KAM1 190549Z 17009KT 27/14 A2994 RMK A01 T02690141  RH  046%=      5-min Rain = 0
KAM1 190550Z 17009KT 27/14 A2994 RMK A01 T02690141  RH  045%=      5-min Rain = 0
KAM1 190551Z 17009KT 27/14 A2994 RMK A01 T02690141  RH  046%=      5-min Rain = 0
KAM1 190552Z 17009KT 27/14 A2994 RMK A01 T02680142  RH  046%=      5-min Rain = 0
KAM1 190553Z 16010KT 27/14 A2994 RMK A01 T02680141  RH  046%=      5-min Rain = 0
KAM1 190554Z 17009KT 27/14 A2994 RMK A01 T02680141  RH  046%=      5-min Rain = 0
KAM1 190555Z 17009KT 27/14 A2994 RMK A01 T02680142  RH  046%=      5-min Rain = 0
KAM1 190556Z 17009KT 27/14 A2994 RMK A01 T02670141  RH  046%=      5-min Rain = 0
KAM1 190557Z 17009KT 27/14 A2994 RMK A01 T02670141  RH  046%=      5-min Rain = 0
KAM1 190558Z 17009KT 27/14 A2994 RMK A01 T02670141  RH  046%=      5-min Rain = 0
KAM1 190559Z 17009KT 27/14 A2994 RMK A01 T02670141  RH  046%=      5-min Rain = 0
KAM1 190600Z 17008KT 27/14 A2994 RMK A01 T02670141  RH  046%=      5-min Rain = 0
KAM1 190601Z 17009KT 27/14 A2994 RMK A01 T02670141  RH  046%=      5-min Rain = 0
KAM1 190602Z 17009KT 27/14 A2994 RMK A01 T02660141  RH  046%=      5-min Rain = 0
KAM1 190603Z 17008KT 27/14 A2994 RMK A01 T02660141  RH  046%=      5-min Rain = 0
KAM1 190604Z 17009KT 27/14 A2994 RMK A01 T02650141  RH  046%=      5-min Rain = 0
KAM1 190605Z 17009KT 27/14 A2994 RMK A01 T02650141  RH  046%=      5-min Rain = 0
KAM1 190606Z 17010KT 27/14 A2994 RMK A01 T02660141  RH  046%=      5-min Rain = 0
KAM1 190607Z 17008KT 27/14 A2994 RMK A01 T02670141  RH  046%=      5-min Rain = 0
KAM1 190608Z 17009KT 27/14 A2994 RMK A01 T02670141  RH  046%=      5-min Rain = 0
KAM1 190609Z 17009KT 27/14 A2994 RMK A01 T02670141  RH  046%=      5-min Rain = 0
KAM1 190610Z 17008KT 27/14 A2994 RMK A01 T02670141  RH  046%=      5-min Rain = 0
KAM1 190611Z 17009KT 27/14 A2994 RMK A01 T02670141  RH  046%=      5-min Rain = 0
KAM1 190612Z 17009KT 27/14 A2994 RMK A01 T02660141  RH  046%=      5-min Rain = 0
KAM1 190613Z 17009KT 27/14 A2994 RMK A01 T02660141  RH  046%=      5-min Rain = 0
KAM1 190614Z 17009KT 27/14 A2994 RMK A01 T02670141  RH  046%=      5-min Rain = 0
KAM1 190615Z 17009KT 27/14 A2994 RMK A01 T02670141  RH  046%=      5-min Rain = 0
KAM1 190616Z 16009KT 27/14 A2994 RMK A01 T02660141  RH  046%=      5-min Rain = 0
KAM1 190617Z 17008KT 27/14 A2994 RMK A01 T02660141  RH  046%=      5-min Rain = 0
KAM1 190618Z 16009KT 27/14 A2994 RMK A01 T02650141  RH  046%=      5-min Rain = 0
KAM1 190619Z 17008KT 26/14 A2994 RMK A01 T02640141  RH  047%=      5-min Rain = 0
KAM1 190620Z 16008KT 26/14 A2994 RMK A01 T02630141  RH  047%=      5-min Rain = 0
KAM1 190621Z 17008KT 26/14 A2994 RMK A01 T02630141  RH  047%=      5-min Rain = 0
KAM1 190622Z 16009KT 26/14 A2994 RMK A01 T02630141  RH  047%=      5-min Rain = 0
KAM1 190623Z 17008KT 26/14 A2994 RMK A01 T02630141  RH  047%=      5-min Rain = 0
KAM1 190624Z 16008KT 26/14 A2994 RMK A01 T02630141  RH  047%=      5-min Rain = 0
KAM1 190625Z 17007KT 26/14 A2994 RMK A01 T02620141  RH  047%=      5-min Rain = 0
KAM1 190626Z 16008KT 26/14 A2994 RMK A01 T02620141  RH  048%=      5-min Rain = 0
KAM1 190627Z 16008KT 26/14 A2994 RMK A01 T02610142  RH  048%=      5-min Rain = 0
KAM1 190628Z 16008KT 26/14 A2994 RMK A01 T02600142  RH  048%=      5-min Rain = 0
KAM1 190629Z 16007KT 26/14 A2994 RMK A01 T02590142  RH  048%=      5-min Rain = 0
KAM1 190630Z 17007KT 26/14 A2994 RMK A01 T02590142  RH  049%=      5-min Rain = 0
KAM1 190631Z 17008KT 26/14 A2994 RMK A01 T02580142  RH  049%=      5-min Rain = 0
KAM1 190632Z 17007KT 26/14 A2994 RMK A01 T02570142  RH  049%=      5-min Rain = 0
KAM1 190633Z 17007KT 26/14 A2994 RMK A01 T02570142  RH  049%=      5-min Rain = 0
KAM1 190634Z 17007KT 26/14 A2994 RMK A01 T02560142  RH  049%=      5-min Rain = 0
KAM1 190635Z 17008KT 26/14 A2995 RMK A01 T02560143  RH  049%=      5-min Rain = 0
KAM1 190636Z 17008KT 26/14 A2995 RMK A01 T02550142  RH  050%=      5-min Rain = 0
KAM1 190637Z 17008KT 25/14 A2995 RMK A01 T02540143  RH  050%=      5-min Rain = 0
KAM1 190638Z 17008KT 25/14 A2995 RMK A01 T02540143  RH  050%=      5-min Rain = 0
KAM1 190639Z 17008KT 25/14 A2995 RMK A01 T02540143  RH  050%=      5-min Rain = 0
KAM1 190640Z 17008KT 25/14 A2995 RMK A01 T02540143  RH  050%=      5-min Rain = 0
KAM1 190641Z 17008KT 25/14 A2995 RMK A01 T02540143  RH  050%=      5-min Rain = 0
KAM1 190642Z 18008KT 25/14 A2995 RMK A01 T02540143  RH  050%=      5-min Rain = 0
KAM1 190643Z 18007KT 25/14 A2995 RMK A01 T02530143  RH  051%=      5-min Rain = 0
KAM1 190644Z 18008KT 25/14 A2995 RMK A01 T02530143  RH  051%=      5-min Rain = 0
KAM1 190645Z 18008KT 25/14 A2994 RMK A01 T02520143  RH  051%=      5-min Rain = 0
KAM1 190646Z 18008KT 25/14 A2995 RMK A01 T02520142  RH  050%=      5-min Rain = 0
KAM1 190647Z 18008KT 25/14 A2995 RMK A01 T02520142  RH  050%=      5-min Rain = 0
KAM1 190648Z 18008KT 25/14 A2995 RMK A01 T02530142  RH  050%=      5-min Rain = 0
KAM1 190649Z 18008KT 25/14 A2995 RMK A01 T02530142  RH  050%=      5-min Rain = 0
KAM1 190650Z 18009KT 25/14 A2995 RMK A01 T02530142  RH  050%=      5-min Rain = 0
KAM1 190651Z 18009KT 25/14 A2995 RMK A01 T02530142  RH  050%=      5-min Rain = 0
KAM1 190652Z 18008KT 25/14 A2995 RMK A01 T02540142  RH  050%=      5-min Rain = 0
KAM1 190653Z 18009KT 25/14 A2995 RMK A01 T02540142  RH  050%=      5-min Rain = 0
KAM1 190654Z 18008KT 26/14 A2995 RMK A01 T02550142  RH  050%=      5-min Rain = 0
KAM1 190655Z 18008KT 26/14 A2995 RMK A01 T02550142  RH  050%=      5-min Rain = 0
KAM1 190656Z 18008KT 25/14 A2995 RMK A01 T02540142  RH  050%=      5-min Rain = 0
KAM1 190657Z 18008KT 25/14 A2995 RMK A01 T02540142  RH  050%=      5-min Rain = 0
KAM1 190658Z 18008KT 25/14 A2995 RMK A01 T02540142  RH  050%=      5-min Rain = 0
KAM1 190659Z 18008KT 25/14 A2995 RMK A01 T02540142  RH  050%=      5-min Rain = 0
KAM1 190700Z 18008KT 25/14 A2995 RMK A01 T02540142  RH  050%=      5-min Rain = 0
KAM1 190701Z 18009KT 25/14 A2995 RMK A01 T02540142  RH  050%=      5-min Rain = 0
KAM1 190702Z 18008KT 25/14 A2995 RMK A01 T02530142  RH  050%=      5-min Rain = 0
KAM1 190703Z 18008KT 25/14 A2995 RMK A01 T02530142  RH  050%=      5-min Rain = 0
KAM1 190704Z 18008KT 25/14 A2995 RMK A01 T02530142  RH  050%=      5-min Rain = 0
KAM1 190705Z 17008KT 25/14 A2995 RMK A01 T02530142  RH  050%=      5-min Rain = 0
KAM1 190706Z 17008KT 25/14 A2995 RMK A01 T02520143  RH  051%=      5-min Rain = 0
KAM1 190707Z 17007KT 25/14 A2995 RMK A01 T02520143  RH  051%=      5-min Rain = 0
KAM1 190708Z 17008KT 25/14 A2995 RMK A01 T02520142  RH  051%=      5-min Rain = 0
KAM1 190709Z 18008KT 25/14 A2995 RMK A01 T02510142  RH  051%=      5-min Rain = 0
KAM1 190710Z 17008KT 25/14 A2995 RMK A01 T02510143  RH  051%=      5-min Rain = 0
KAM1 190711Z 17008KT 25/14 A2995 RMK A01 T02500142  RH  051%=      5-min Rain = 0
KAM1 190712Z 17007KT 25/14 A2995 RMK A01 T02500142  RH  051%=      5-min Rain = 0
KAM1 190713Z 17008KT 25/14 A2995 RMK A01 T02490142  RH  051%=      5-min Rain = 0
KAM1 190714Z 17008KT 25/14 A2995 RMK A01 T02490142  RH  052%=      5-min Rain = 0
KAM1 190715Z 17007KT 25/14 A2995 RMK A01 T02480142  RH  052%=      5-min Rain = 0
KAM1 190716Z 18008KT 25/14 A2995 RMK A01 T02470142  RH  052%=      5-min Rain = 0
KAM1 190717Z 18008KT 25/14 A2995 RMK A01 T02460142  RH  052%=      5-min Rain = 0
KAM1 190718Z 18008KT 25/14 A2995 RMK A01 T02460142  RH  052%=      5-min Rain = 0
KAM1 190719Z 18008KT 25/14 A2995 RMK A01 T02460142  RH  053%=      5-min Rain = 0
KAM1 190720Z 18008KT 25/14 A2995 RMK A01 T02450142  RH  053%=      5-min Rain = 0
KAM1 190721Z 18008KT 25/14 A2995 RMK A01 T02450142  RH  053%=      5-min Rain = 0
KAM1 190722Z 18008KT 25/14 A2995 RMK A01 T02450142  RH  053%=      5-min Rain = 0
KAM1 190723Z 18008KT 25/14 A2995 RMK A01 T02450143  RH  053%=      5-min Rain = 0
KAM1 190724Z 18008KT 24/14 A2995 RMK A01 T02440143  RH  053%=      5-min Rain = 0
KAM1 190725Z 18008KT 25/14 A2994 RMK A01 T02450143  RH  053%=      5-min Rain = 0
KAM1 190726Z 17008KT 25/14 A2994 RMK A01 T02450143  RH  053%=      5-min Rain = 0
KAM1 190727Z 17008KT 25/14 A2994 RMK A01 T02450143  RH  053%=      5-min Rain = 0
KAM1 190728Z 18008KT 25/14 A2994 RMK A01 T02450143  RH  053%=      5-min Rain = 0
KAM1 190729Z 18008KT 25/14 A2994 RMK A01 T02450143  RH  053%=      5-min Rain = 0
KAM1 190730Z 17009KT 25/14 A2995 RMK A01 T02460143  RH  053%=      5-min Rain = 0
KAM1 190731Z 17008KT 25/14 A2995 RMK A01 T02460143  RH  053%=      5-min Rain = 0
KAM1 190732Z 17009KT 25/14 A2995 RMK A01 T02470144  RH  053%=      5-min Rain = 0
KAM1 190733Z 17009KT 25/14 A2995 RMK A01 T02470144  RH  053%=      5-min Rain = 0
KAM1 190734Z 17009KT 25/14 A2995 RMK A01 T02480144  RH  052%=      5-min Rain = 0
KAM1 190735Z 17009KT 25/14 A2994 RMK A01 T02480144  RH  052%=      5-min Rain = 0
KAM1 190736Z 17008KT 25/14 A2994 RMK A01 T02480144  RH  053%=      5-min Rain = 0
KAM1 190737Z 18008KT 25/14 A2994 RMK A01 T02470144  RH  053%=      5-min Rain = 0
KAM1 190738Z 18009KT 25/15 A2994 RMK A01 T02470145  RH  053%=      5-min Rain = 0
KAM1 190739Z 18009KT 25/15 A2994 RMK A01 T02470145  RH  053%=      5-min Rain = 0
KAM1 190740Z 18009KT 25/15 A2994 RMK A01 T02470145  RH  053%=      5-min Rain = 0
KAM1 190741Z 18009KT 25/15 A2994 RMK A01 T02480145  RH  053%=      5-min Rain = 0
KAM1 190742Z 18008KT 25/15 A2994 RMK A01 T02490146  RH  053%=      5-min Rain = 0
KAM1 190743Z 18009KT 25/15 A2994 RMK A01 T02490146  RH  053%=      5-min Rain = 0
KAM1 190744Z 18010KT 25/15 A2994 RMK A01 T02500146  RH  053%=      5-min Rain = 0
KAM1 190745Z 18010KT 25/15 A2994 RMK A01 T02500146  RH  053%=      5-min Rain = 0
KAM1 190746Z 18009KT 25/15 A2994 RMK A01 T02510147  RH  052%=      5-min Rain = 0
KAM1 190747Z 18009KT 25/15 A2994 RMK A01 T02510147  RH  052%=      5-min Rain = 0
KAM1 190748Z 18010KT 25/15 A2994 RMK A01 T02510148  RH  053%=      5-min Rain = 0
KAM1 190749Z 18011KT 25/15 A2994 RMK A01 T02510148  RH  053%=      5-min Rain = 0
KAM1 190750Z 18010KT 25/15 A2994 RMK A01 T02520148  RH  053%=      5-min Rain = 0
KAM1 190751Z 18010KT 25/15 A2994 RMK A01 T02520148  RH  052%=      5-min Rain = 0
KAM1 190752Z 18009KT 25/15 A2994 RMK A01 T02530148  RH  052%=      5-min Rain = 0
KAM1 190753Z 18010KT 25/15 A2994 RMK A01 T02530148  RH  052%=      5-min Rain = 0
KAM1 190754Z 18009KT 25/15 A2994 RMK A01 T02530149  RH  052%=      5-min Rain = 0
KAM1 190755Z 18010KT 25/15 A2994 RMK A01 T02530149  RH  053%=      5-min Rain = 0
KAM1 190756Z 18011KT 25/15 A2994 RMK A01 T02520149  RH  053%=      5-min Rain = 0
KAM1 190757Z 18010KT 25/15 A2994 RMK A01 T02520149  RH  053%=      5-min Rain = 0
KAM1 190758Z 18010KT 25/15 A2994 RMK A01 T02520149  RH  053%=      5-min Rain = 0
KAM1 190759Z 18009KT 25/15 A2994 RMK A01 T02520149  RH  053%=      5-min Rain = 0
KAM1 190800Z 18010KT 25/15 A2994 RMK A01 T02530150  RH  053%=      5-min Rain = 0
KAM1 190801Z 18010KT 25/15 A2994 RMK A01 T02520150  RH  053%=      5-min Rain = 0
KAM1 190802Z 18009KT 25/15 A2994 RMK A01 T02520150  RH  053%=      5-min Rain = 0
KAM1 190803Z 18009KT 25/15 A2994 RMK A01 T02520149  RH  053%=      5-min Rain = 0
KAM1 190804Z 18010KT 25/15 A2994 RMK A01 T02520150  RH  053%=      5-min Rain = 0
KAM1 190805Z 18010KT 25/15 A2994 RMK A01 T02520150  RH  053%=      5-min Rain = 0
KAM1 190806Z 18011KT 25/15 A2994 RMK A01 T02520150  RH  053%=      5-min Rain = 0
KAM1 190807Z 18011KT 25/15 A2994 RMK A01 T02520151  RH  053%=      5-min Rain = 0
KAM1 190808Z 18011KT 25/15 A2994 RMK A01 T02530151  RH  053%=      5-min Rain = 0
KAM1 190809Z 19010KT 25/15 A2994 RMK A01 T02540151  RH  053%=      5-min Rain = 0
KAM1 190810Z 19012KT 25/15 A2994 RMK A01 T02540151  RH  053%=      5-min Rain = 0
KAM1 190811Z 19009KT 26/15 A2994 RMK A01 T02550152  RH  053%=      5-min Rain = 0
KAM1 190812Z 18011KT 25/15 A2994 RMK A01 T02540152  RH  053%=      5-min Rain = 0
KAM1 190813Z 19010KT 25/15 A2994 RMK A01 T02540152  RH  053%=      5-min Rain = 0
KAM1 190814Z 18009KT 25/15 A2994 RMK A01 T02540152  RH  053%=      5-min Rain = 0
KAM1 190815Z 19011KT 25/15 A2994 RMK A01 T02540152  RH  053%=      5-min Rain = 0
KAM1 190816Z 18011KT 25/15 A2994 RMK A01 T02530152  RH  053%=      5-min Rain = 0
KAM1 190817Z 18010KT 25/15 A2994 RMK A01 T02530152  RH  054%=      5-min Rain = 0
KAM1 190818Z 18012KT 25/15 A2994 RMK A01 T02540153  RH  053%=      5-min Rain = 0
KAM1 190819Z 18011KT 26/15 A2994 RMK A01 T02560154  RH  053%=      5-min Rain = 0
KAM1 190820Z 19011KT 26/15 A2994 RMK A01 T02560154  RH  053%=      5-min Rain = 0
KAM1 190821Z 19010KT 26/15 A2994 RMK A01 T02560154  RH  053%=      5-min Rain = 0
KAM1 190822Z 18012KT 26/15 A2994 RMK A01 T02560154  RH  053%=      5-min Rain = 0
KAM1 190823Z 18014KT 26/15 A2994 RMK A01 T02560154  RH  053%=      5-min Rain = 0
KAM1 190824Z 18012KT 26/15 A2994 RMK A01 T02580154  RH  053%=      5-min Rain = 0
KAM1 190825Z 19012KT 26/15 A2994 RMK A01 T02580154  RH  053%=      5-min Rain = 0
KAM1 190826Z 18011KT 26/15 A2994 RMK A01 T02580154  RH  053%=      5-min Rain = 0
KAM1 190827Z 19013KT 26/16 A2994 RMK A01 T02570155  RH  053%=      5-min Rain = 0
KAM1 190828Z 19012KT 26/16 A2994 RMK A01 T02580155  RH  053%=      5-min Rain = 0
KAM1 190829Z 19013KT 26/16 A2994 RMK A01 T02580155  RH  053%=      5-min Rain = 0
KAM1 190830Z 19010KT 26/16 A2994 RMK A01 T02580155  RH  053%=      5-min Rain = 0
KAM1 190831Z 18011G16KT 26/16 A2994 RMK A01 T02580155  RH  053%=      5-min Rain = 0
KAM1 190832Z 19014KT 26/16 A2994 RMK A01 T02580155  RH  053%=      5-min Rain = 0
KAM1 190833Z 19014KT 26/16 A2994 RMK A01 T02580155  RH  053%=      5-min Rain = 0
KAM1 190834Z 19012KT 26/16 A2994 RMK A01 T02580155  RH  053%=      5-min Rain = 0
KAM1 190835Z 19012KT 26/16 A2994 RMK A01 T02580155  RH  053%=      5-min Rain = 0
KAM1 190836Z 19012KT 26/16 A2994 RMK A01 T02580156  RH  053%=      5-min Rain = 0
KAM1 190837Z 19011KT 26/16 A2994 RMK A01 T02580156  RH  053%=      5-min Rain = 0
KAM1 190838Z 19012KT 26/16 A2994 RMK A01 T02580156  RH  053%=      5-min Rain = 0
KAM1 190839Z 20012KT 26/16 A2994 RMK A01 T02580156  RH  053%=      5-min Rain = 0
KAM1 190840Z 19013G18KT 26/16 A2994 RMK A01 T02580156  RH  053%=      5-min Rain = 0
KAM1 190841Z 19013KT 26/16 A2994 RMK A01 T02580156  RH  053%=      5-min Rain = 0
KAM1 190842Z 19013KT 26/16 A2994 RMK A01 T02590156  RH  053%=      5-min Rain = 0
KAM1 190843Z 19015KT 26/16 A2994 RMK A01 T02590156  RH  053%=      5-min Rain = 0
KAM1 190844Z 20011KT 26/16 A2994 RMK A01 T02590156  RH  053%=      5-min Rain = 0
KAM1 190845Z 19015KT 26/16 A2994 RMK A01 T02590156  RH  053%=      5-min Rain = 0
KAM1 190846Z 19013KT 26/16 A2994 RMK A01 T02590156  RH  053%=      5-min Rain = 0
KAM1 190847Z 19013KT 26/16 A2994 RMK A01 T02590156  RH  053%=      5-min Rain = 0
KAM1 190848Z 20012G18KT 26/16 A2994 RMK A01 T02590156  RH  053%=      5-min Rain = 0
KAM1 190849Z 19014KT 26/16 A2994 RMK A01 T02590156  RH  053%=      5-min Rain = 0
KAM1 190850Z 20013KT 26/16 A2994 RMK A01 T02600156  RH  053%=      5-min Rain = 0
KAM1 190851Z 19011KT 26/16 A2994 RMK A01 T02600157  RH  053%=      5-min Rain = 0
KAM1 190852Z 19011KT 26/16 A2994 RMK A01 T02590157  RH  053%=      5-min Rain = 0
KAM1 190853Z 19011KT 26/16 A2994 RMK A01 T02580156  RH  053%=      5-min Rain = 0
KAM1 190854Z 19012KT 26/16 A2994 RMK A01 T02580156  RH  053%=      5-min Rain = 0
KAM1 190855Z 20015KT 26/16 A2994 RMK A01 T02580156  RH  053%=      5-min Rain = 0
KAM1 190856Z 19014KT 26/16 A2994 RMK A01 T02590156  RH  053%=      5-min Rain = 0
KAM1 190857Z 19013KT 26/16 A2994 RMK A01 T02590156  RH  053%=      5-min Rain = 0
KAM1 190858Z 19013KT 26/16 A2994 RMK A01 T02590156  RH  053%=      5-min Rain = 0
KAM1 190859Z 20011KT 26/16 A2995 RMK A01 T02590156  RH  053%=      5-min Rain = 0
KAM1 190900Z 19014KT 26/16 A2994 RMK A01 T02590156  RH  053%=      5-min Rain = 0
KAM1 190901Z 20015KT 26/16 A2994 RMK A01 T02580156  RH  053%=      5-min Rain = 0
KAM1 190902Z 19014KT 26/16 A2994 RMK A01 T02590156  RH  053%=      5-min Rain = 0
KAM1 190903Z 19014KT 26/16 A2994 RMK A01 T02600156  RH  053%=      5-min Rain = 0
KAM1 190904Z 19018KT 26/16 A2994 RMK A01 T02600156  RH  053%=      5-min Rain = 0
KAM1 190905Z 20013KT 26/16 A2994 RMK A01 T02610156  RH  052%=      5-min Rain = 0
KAM1 190906Z 19013KT 26/16 A2995 RMK A01 T02610157  RH  053%=      5-min Rain = 0
KAM1 190907Z 19013G18KT 26/16 A2995 RMK A01 T02600156  RH  053%=      5-min Rain = 0
KAM1 190908Z 20014KT 26/16 A2995 RMK A01 T02590156  RH  053%=      5-min Rain = 0
KAM1 190909Z 19013KT 26/16 A2995 RMK A01 T02590156  RH  053%=      5-min Rain = 0
KAM1 190910Z 19012KT 26/16 A2995 RMK A01 T02590156  RH  053%=      5-min Rain = 0
KAM1 190911Z 20013KT 26/16 A2995 RMK A01 T02590156  RH  053%=      5-min Rain = 0
KAM1 190912Z 19012KT 26/16 A2994 RMK A01 T02580156  RH  053%=      5-min Rain = 0
KAM1 190913Z 19014KT 26/16 A2994 RMK A01 T02580156  RH  053%=      5-min Rain = 0
KAM1 190914Z 19013G18KT 26/16 A2994 RMK A01 T02580156  RH  053%=      5-min Rain = 0
KAM1 190915Z 19011KT 26/16 A2994 RMK A01 T02580156  RH  053%=      5-min Rain = 0
KAM1 190916Z 19012KT 26/16 A2994 RMK A01 T02580156  RH  053%=      5-min Rain = 0
KAM1 190917Z 19012KT 26/16 A2994 RMK A01 T02580156  RH  053%=      5-min Rain = 0
KAM1 190918Z 19013KT 26/16 A2994 RMK A01 T02570156  RH  053%=      5-min Rain = 0
KAM1 190919Z 19014KT 26/16 A2994 RMK A01 T02570156  RH  053%=      5-min Rain = 0
KAM1 190920Z 19013KT 26/16 A2994 RMK A01 T02570156  RH  054%=      5-min Rain = 0
KAM1 190921Z 20015KT 26/16 A2994 RMK A01 T02570156  RH  053%=      5-min Rain = 0
KAM1 190922Z 19011KT 26/16 A2994 RMK A01 T02570156  RH  054%=      5-min Rain = 0
KAM1 190923Z 19012KT 26/16 A2994 RMK A01 T02560156  RH  054%=      5-min Rain = 0
KAM1 190924Z 18011KT 26/16 A2994 RMK A01 T02560156  RH  054%=      5-min Rain = 0
KAM1 190925Z 19012KT 26/16 A2994 RMK A01 T02550156  RH  054%=      5-min Rain = 0
KAM1 190926Z 19010KT 26/16 A2994 RMK A01 T02550156  RH  054%=      5-min Rain = 0
KAM1 190927Z 19009KT 25/16 A2994 RMK A01 T02540156  RH  054%=      5-min Rain = 0
KAM1 190928Z 19010KT 25/16 A2994 RMK A01 T02530155  RH  055%=      5-min Rain = 0
KAM1 190929Z 19012KT 25/16 A2994 RMK A01 T02520156  RH  055%=      5-min Rain = 0
KAM1 190930Z 19012KT 25/16 A2994 RMK A01 T02520156  RH  055%=      5-min Rain = 0
KAM1 190931Z 18012KT 25/16 A2994 RMK A01 T02530156  RH  055%=      5-min Rain = 0
KAM1 190932Z 19013KT 25/16 A2994 RMK A01 T02530156  RH  055%=      5-min Rain = 0
KAM1 190933Z 19011KT 25/16 A2994 RMK A01 T02530156  RH  055%=      5-min Rain = 0
KAM1 190934Z 19010KT 25/16 A2994 RMK A01 T02530156  RH  055%=      5-min Rain = 0
KAM1 190935Z 19012KT 25/16 A2994 RMK A01 T02520156  RH  055%=      5-min Rain = 0
KAM1 190936Z 19013KT 25/16 A2994 RMK A01 T02520156  RH  055%=      5-min Rain = 0
KAM1 190937Z 20013KT 25/16 A2994 RMK A01 T02520155  RH  055%=      5-min Rain = 0
KAM1 190938Z 19010KT 25/16 A2994 RMK A01 T02520155  RH  055%=      5-min Rain = 0
KAM1 190939Z 19011KT 25/16 A2994 RMK A01 T02520155  RH  055%=      5-min Rain = 0
KAM1 190940Z 19013KT 25/16 A2994 RMK A01 T02520155  RH  055%=      5-min Rain = 0
KAM1 190941Z 19013KT 25/16 A2994 RMK A01 T02520155  RH  055%=      5-min Rain = 0
KAM1 190942Z 19014KT 25/16 A2994 RMK A01 T02510155  RH  055%=      5-min Rain = 0
KAM1 190943Z 19012KT 25/16 A2994 RMK A01 T02530155  RH  055%=      5-min Rain = 0
KAM1 190944Z 19012KT 25/16 A2994 RMK A01 T02530155  RH  054%=      5-min Rain = 0
KAM1 190945Z 19011KT 25/15 A2995 RMK A01 T02530154  RH  054%=      5-min Rain = 0
KAM1 190946Z 19013KT 25/15 A2995 RMK A01 T02530154  RH  054%=      5-min Rain = 0
KAM1 190947Z 19014KT 25/15 A2994 RMK A01 T02530154  RH  054%=      5-min Rain = 0
KAM1 190948Z 19014KT 25/15 A2994 RMK A01 T02530154  RH  054%=      5-min Rain = 0
KAM1 190949Z 20013G18KT 25/15 A2994 RMK A01 T02530154  RH  054%=      5-min Rain = 0
KAM1 190950Z 19013KT 25/15 A2995 RMK A01 T02530154  RH  054%=      5-min Rain = 0
KAM1 190951Z 19011KT 25/15 A2995 RMK A01 T02530154  RH  054%=      5-min Rain = 0
KAM1 190952Z 19011KT 25/15 A2995 RMK A01 T02530154  RH  054%=      5-min Rain = 0
KAM1 190953Z 19010KT 25/15 A2995 RMK A01 T02530153  RH  054%=      5-min Rain = 0
KAM1 190954Z 20010KT 25/15 A2995 RMK A01 T02530154  RH  054%=      5-min Rain = 0
KAM1 190955Z 19009KT 25/15 A2995 RMK A01 T02520153  RH  054%=      5-min Rain = 0
KAM1 190956Z 19011KT 25/15 A2995 RMK A01 T02510153  RH  055%=      5-min Rain = 0
KAM1 190957Z 19011G16KT 25/15 A2995 RMK A01 T02500153  RH  055%=      5-min Rain = 0
KAM1 190958Z 20013KT 25/15 A2995 RMK A01 T02500153  RH  055%=      5-min Rain = 0
KAM1 190959Z 19012KT 25/15 A2995 RMK A01 T02500152  RH  055%=      5-min Rain = 0
KAM1 191000Z 19012G17KT 25/15 A2995 RMK A01 T02510152  RH  054%=      5-min Rain = 0
KAM1 191001Z 19013G19KT 25/15 A2995 RMK A01 T02510152  RH  054%=      5-min Rain = 0
KAM1 191002Z 20012KT 25/15 A2995 RMK A01 T02520153  RH  054%=      5-min Rain = 0
KAM1 191003Z 20011KT 25/15 A2995 RMK A01 T02510152  RH  054%=      5-min Rain = 0
KAM1 191004Z 19013KT 25/15 A2995 RMK A01 T02520152  RH  054%=      5-min Rain = 0
KAM1 191005Z 19014KT 25/15 A2995 RMK A01 T02520152  RH  054%=      5-min Rain = 0
KAM1 191006Z 20014KT 25/15 A2995 RMK A01 T02520152  RH  054%=      5-min Rain = 0
KAM1 191007Z 19012KT 25/15 A2995 RMK A01 T02520152  RH  054%=      5-min Rain = 0
KAM1 191008Z 19012G17KT 25/15 A2995 RMK A01 T02530152  RH  054%=      5-min Rain = 0
KAM1 191009Z 20012KT 25/15 A2995 RMK A01 T02520151  RH  054%=      5-min Rain = 0
KAM1 191010Z 19013KT 25/15 A2995 RMK A01 T02520152  RH  054%=      5-min Rain = 0
KAM1 191011Z 20011G16KT 25/15 A2995 RMK A01 T02520151  RH  054%=      5-min Rain = 0
KAM1 191012Z 19013KT 25/15 A2995 RMK A01 T02520151  RH  054%=      5-min Rain = 0
KAM1 191013Z 20010KT 25/15 A2995 RMK A01 T02510151  RH  054%=      5-min Rain = 0
KAM1 191014Z 19010KT 25/15 A2995 RMK A01 T02510151  RH  054%=      5-min Rain = 0
KAM1 191015Z 20012G17KT 25/15 A2995 RMK A01 T02500151  RH  054%=      5-min Rain = 0
KAM1 191016Z 20014KT 25/15 A2995 RMK A01 T02500151  RH  054%=      5-min Rain = 0
KAM1 191017Z 19014KT 25/15 A2995 RMK A01 T02510150  RH  054%=      5-min Rain = 0
KAM1 191018Z 20011KT 25/15 A2995 RMK A01 T02510150  RH  053%=      5-min Rain = 0
KAM1 191019Z 20011KT 25/15 A2995 RMK A01 T02510150  RH  053%=      5-min Rain = 0
KAM1 191020Z 20011KT 25/15 A2995 RMK A01 T02510150  RH  054%=      5-min Rain = 0
KAM1 191021Z 20012KT 25/15 A2995 RMK A01 T02500150  RH  054%=      5-min Rain = 0
KAM1 191022Z 20013KT 25/15 A2995 RMK A01 T02500149  RH  054%=      5-min Rain = 0
KAM1 191023Z 20009KT 25/15 A2995 RMK A01 T02500149  RH  054%=      5-min Rain = 0
KAM1 191024Z 19011KT 25/15 A2995 RMK A01 T02500150  RH  054%=      5-min Rain = 0
KAM1 191025Z 20011G16KT 25/15 A2995 RMK A01 T02490149  RH  054%=      5-min Rain = 0
KAM1 191026Z 20012KT 25/15 A2995 RMK A01 T02490150  RH  054%=      5-min Rain = 0
KAM1 191027Z 20011KT 25/15 A2995 RMK A01 T02490149  RH  054%=      5-min Rain = 0
KAM1 191028Z 20012KT 25/15 A2995 RMK A01 T02490149  RH  054%=      5-min Rain = 0
KAM1 191029Z 20011KT 25/15 A2995 RMK A01 T02490149  RH  054%=      5-min Rain = 0
KAM1 191030Z 20009KT 25/15 A2995 RMK A01 T02490149  RH  054%=      5-min Rain = 0
KAM1 191031Z 20013KT 25/15 A2995 RMK A01 T02480149  RH  054%=      5-min Rain = 0
KAM1 191032Z 20012KT 25/15 A2995 RMK A01 T02480149  RH  054%=      5-min Rain = 0
KAM1 191033Z 20010KT 25/15 A2995 RMK A01 T02480148  RH  054%=      5-min Rain = 0
KAM1 191034Z 20011KT 25/15 A2995 RMK A01 T02480149  RH  054%=      5-min Rain = 0
KAM1 191035Z 20013KT 25/15 A2995 RMK A01 T02470148  RH  054%=      5-min Rain = 0
KAM1 191036Z 20014KT 25/15 A2995 RMK A01 T02470148  RH  054%=      5-min Rain = 0
KAM1 191037Z 20011KT 25/15 A2995 RMK A01 T02480148  RH  054%=      5-min Rain = 0
KAM1 191038Z 20011KT 25/15 A2995 RMK A01 T02480148  RH  054%=      5-min Rain = 0
KAM1 191039Z 20011KT 25/15 A2995 RMK A01 T02480148  RH  054%=      5-min Rain = 0
KAM1 191040Z 19012KT 25/15 A2995 RMK A01 T02480148  RH  054%=      5-min Rain = 0
KAM1 191041Z 20008KT 25/15 A2995 RMK A01 T02470148  RH  054%=      5-min Rain = 0
KAM1 191042Z 20010KT 25/15 A2995 RMK A01 T02470148  RH  054%=      5-min Rain = 0
KAM1 191043Z 20013KT 25/15 A2995 RMK A01 T02460148  RH  054%=      5-min Rain = 0
KAM1 191044Z 20011KT 25/15 A2995 RMK A01 T02470148  RH  054%=      5-min Rain = 0
KAM1 191045Z 20013G19KT 25/15 A2995 RMK A01 T02470148  RH  054%=      5-min Rain = 0
KAM1 191046Z 20014KT 25/15 A2995 RMK A01 T02470147  RH  054%=      5-min Rain = 0
KAM1 191047Z 20013KT 25/15 A2995 RMK A01 T02480147  RH  054%=      5-min Rain = 0
KAM1 191048Z 19012KT 25/15 A2995 RMK A01 T02480147  RH  054%=      5-min Rain = 0
KAM1 191049Z 20012KT 25/15 A2995 RMK A01 T02480147  RH  054%=      5-min Rain = 0
KAM1 191050Z 20013KT 25/15 A2995 RMK A01 T02470147  RH  054%=      5-min Rain = 0
KAM1 191051Z 19013KT 25/15 A2995 RMK A01 T02470147  RH  054%=      5-min Rain = 0
KAM1 191052Z 20014KT 25/15 A2995 RMK A01 T02470147  RH  054%=      5-min Rain = 0
KAM1 191053Z 20012KT 25/15 A2995 RMK A01 T02470147  RH  054%=      5-min Rain = 0
KAM1 191054Z 20013KT 25/15 A2995 RMK A01 T02470147  RH  054%=      5-min Rain = 0
KAM1 191055Z 20013KT 25/15 A2995 RMK A01 T02460147  RH  054%=      5-min Rain = 0
KAM1 191056Z 19011KT 25/15 A2995 RMK A01 T02460147  RH  054%=      5-min Rain = 0
KAM1 191057Z 19012KT 25/15 A2995 RMK A01 T02460147  RH  054%=      5-min Rain = 0
KAM1 191058Z 20014KT 25/15 A2995 RMK A01 T02460147  RH  054%=      5-min Rain = 0
KAM1 191059Z 19012KT 25/15 A2995 RMK A01 T02450146  RH  054%=      5-min Rain = 0
KAM1 191100Z 20012KT 25/15 A2995 RMK A01 T02450146  RH  054%=      5-min Rain = 0
KAM1 191101Z 20015KT 25/15 A2995 RMK A01 T02450146  RH  054%=      5-min Rain = 0
KAM1 191102Z 20012KT 25/15 A2995 RMK A01 T02460146  RH  054%=      5-min Rain = 0
KAM1 191103Z 20009KT 25/15 A2995 RMK A01 T02460147  RH  054%=      5-min Rain = 0
KAM1 191104Z 20010KT 25/15 A2995 RMK A01 T02450147  RH  054%=      5-min Rain = 0
KAM1 191105Z 20013KT 24/15 A2995 RMK A01 T02440146  RH  054%=      5-min Rain = 0
KAM1 191106Z 19014KT 24/15 A2995 RMK A01 T02430146  RH  054%=      5-min Rain = 0
KAM1 191107Z 19015KT 24/15 A2995 RMK A01 T02440146  RH  054%=      5-min Rain = 0
KAM1 191108Z 20013G18KT 25/15 A2995 RMK A01 T02450146  RH  054%=      5-min Rain = 0
KAM1 191109Z 20010KT 25/15 A2995 RMK A01 T02450146  RH  054%=      5-min Rain = 0
KAM1 191110Z 19013KT 25/15 A2995 RMK A01 T02450146  RH  054%=      5-min Rain = 0
KAM1 191111Z 19012KT 24/15 A2995 RMK A01 T02440146  RH  054%=      5-min Rain = 0
KAM1 191112Z 19011KT 24/15 A2995 RMK A01 T02440146  RH  054%=      5-min Rain = 0
KAM1 191113Z 19012KT 24/15 A2995 RMK A01 T02440146  RH  054%=      5-min Rain = 0
KAM1 191114Z 20014KT 24/15 A2995 RMK A01 T02440145  RH  054%=      5-min Rain = 0
KAM1 191115Z 19012KT 24/15 A2995 RMK A01 T02440146  RH  054%=      5-min Rain = 0
KAM1 191116Z 19011KT 24/15 A2995 RMK A01 T02440146  RH  054%=      5-min Rain = 0
KAM1 191117Z 20013KT 24/15 A2995 RMK A01 T02430145  RH  054%=      5-min Rain = 0
KAM1 191118Z 19013KT 24/15 A2995 RMK A01 T02430145  RH  054%=      5-min Rain = 0
KAM1 191119Z 19013KT 24/15 A2995 RMK A01 T02430145  RH  054%=      5-min Rain = 0
KAM1 191120Z 19011KT 24/15 A2995 RMK A01 T02430145  RH  054%=      5-min Rain = 0
KAM1 191121Z 20012KT 24/15 A2995 RMK A01 T02430145  RH  054%=      5-min Rain = 0
KAM1 191122Z 20011KT 24/15 A2995 RMK A01 T02430145  RH  054%=      5-min Rain = 0
KAM1 191123Z 19012KT 24/15 A2995 RMK A01 T02430145  RH  054%=      5-min Rain = 0
KAM1 191124Z 20012G17KT 24/15 A2995 RMK A01 T02420145  RH  054%=      5-min Rain = 0
KAM1 191125Z 20011KT 24/15 A2995 RMK A01 T02430145  RH  054%=      5-min Rain = 0
KAM1 191126Z 20010KT 24/15 A2995 RMK A01 T02420145  RH  054%=      5-min Rain = 0
KAM1 191127Z 20011KT 24/15 A2995 RMK A01 T02420145  RH  055%=      5-min Rain = 0
KAM1 191128Z 19011KT 24/15 A2995 RMK A01 T02420145  RH  055%=      5-min Rain = 0
KAM1 191129Z 20011KT 24/15 A2995 RMK A01 T02420145  RH  055%=      5-min Rain = 0
KAM1 191130Z 20012KT 24/14 A2995 RMK A01 T02410144  RH  054%=      5-min Rain = 0
KAM1 191131Z 20012KT 24/14 A2995 RMK A01 T02420144  RH  054%=      5-min Rain = 0
KAM1 191132Z 20012KT 24/14 A2995 RMK A01 T02410144  RH  054%=      5-min Rain = 0
KAM1 191133Z 20013KT 24/14 A2995 RMK A01 T02420144  RH  054%=      5-min Rain = 0
KAM1 191134Z 20014KT 24/14 A2995 RMK A01 T02420144  RH  054%=      5-min Rain = 0
KAM1 191135Z 20012KT 24/14 A2995 RMK A01 T02430144  RH  054%=      5-min Rain = 0
KAM1 191136Z 20014KT 24/14 A2995 RMK A01 T02430144  RH  054%=      5-min Rain = 0
KAM1 191137Z 19012KT 24/14 A2995 RMK A01 T02430144  RH  054%=      5-min Rain = 0
KAM1 191138Z 20012KT 24/14 A2995 RMK A01 T02430144  RH  054%=      5-min Rain = 0
KAM1 191139Z 20012KT 24/14 A2995 RMK A01 T02430144  RH  054%=      5-min Rain = 0
KAM1 191140Z 20013G18KT 24/14 A2995 RMK A01 T02420144  RH  054%=      5-min Rain = 0
KAM1 191141Z 19011G17KT 24/14 A2995 RMK A01 T02420143  RH  054%=      5-min Rain = 0
KAM1 191142Z 20014KT 24/14 A2995 RMK A01 T02420143  RH  054%=      5-min Rain = 0
KAM1 191143Z 20012KT 24/14 A2995 RMK A01 T02420143  RH  054%=      5-min Rain = 0
KAM1 191144Z 19014G20KT 24/14 A2995 RMK A01 T02420143  RH  054%=      5-min Rain = 0
KAM1 191145Z 20014KT 24/14 A2995 RMK A01 T02420143  RH  054%=      5-min Rain = 0
KAM1 191146Z 20014KT 24/14 A2995 RMK A01 T02420143  RH  054%=      5-min Rain = 0
KAM1 191147Z 20014KT 24/14 A2995 RMK A01 T02430143  RH  054%=      5-min Rain = 0
KAM1 191148Z 20016G21KT 24/14 A2995 RMK A01 T02430143  RH  054%=      5-min Rain = 0
KAM1 191149Z 20017G23KT 24/14 A2995 RMK A01 T02430143  RH  054%=      5-min Rain = 0
KAM1 191150Z 20014KT 24/14 A2995 RMK A01 T02440143  RH  053%=      5-min Rain = 0
KAM1 191151Z 21014KT 24/14 A2995 RMK A01 T02440143  RH  053%=      5-min Rain = 0
KAM1 191152Z 20014G19KT 24/14 A2995 RMK A01 T02440143  RH  053%=      5-min Rain = 0
KAM1 191153Z 20013G18KT 24/14 A2995 RMK A01 T02440143  RH  053%=      5-min Rain = 0
KAM1 191154Z 20015G22KT 24/14 A2995 RMK A01 T02440143  RH  053%=      5-min Rain = 0
KAM1 191155Z 20015KT 24/14 A2995 RMK A01 T02440143  RH  053%=      5-min Rain = 0
KAM1 191156Z 20015KT 24/14 A2995 RMK A01 T02440143  RH  053%=      5-min Rain = 0
KAM1 191157Z 20013KT 25/14 A2995 RMK A01 T02450143  RH  053%=      5-min Rain = 0
KAM1 191158Z 21011KT 24/14 A2996 RMK A01 T02440143  RH  053%=      5-min Rain = 0
KAM1 191159Z 19013G22KT 24/14 A2996 RMK A01 T02430143  RH  054%=      5-min Rain = 0
KAM1 191200Z 20015KT 24/14 A2995 RMK A01 T02420143  RH  054%=      5-min Rain = 0
KAM1 191201Z 20012KT 24/14 A2995 RMK A01 T02430143  RH  054%=      5-min Rain = 0
KAM1 191202Z 20012KT 24/14 A2996 RMK A01 T02430142  RH  053%=      5-min Rain = 0
KAM1 191203Z 20014KT 24/14 A2996 RMK A01 T02430143  RH  053%=      5-min Rain = 0
KAM1 191204Z 20011G16KT 24/14 A2996 RMK A01 T02430142  RH  053%=      5-min Rain = 0
KAM1 191205Z 20015KT 24/14 A2996 RMK A01 T02430142  RH  053%=      5-min Rain = 0
KAM1 191206Z 20012KT 24/14 A2996 RMK A01 T02430142  RH  053%=      5-min Rain = 0
KAM1 191207Z 20011KT 24/14 A2996 RMK A01 T02430143  RH  053%=      5-min Rain = 0
KAM1 191208Z 20011KT 24/14 A2996 RMK A01 T02430143  RH  054%=      5-min Rain = 0
KAM1 191209Z 20013KT 24/14 A2996 RMK A01 T02420143  RH  054%=      5-min Rain = 0
KAM1 191210Z 20012KT 24/14 A2996 RMK A01 T02430143  RH  054%=      5-min Rain = 0
KAM1 191211Z 20012G17KT 24/14 A2996 RMK A01 T02430142  RH  054%=      5-min Rain = 0
KAM1 191212Z 20010KT 24/14 A2996 RMK A01 T02430142  RH  054%=      5-min Rain = 0
KAM1 191213Z 20009KT 24/14 A2996 RMK A01 T02420143  RH  054%=      5-min Rain = 0
KAM1 191214Z 20012KT 24/14 A2996 RMK A01 T02420143  RH  054%=      5-min Rain = 0
KAM1 191215Z 20013KT 24/14 A2996 RMK A01 T02420142  RH  054%=      5-min Rain = 0
KAM1 191216Z 21012KT 24/14 A2996 RMK A01 T02420142  RH  054%=      5-min Rain = 0
KAM1 191217Z 20014KT 24/14 A2996 RMK A01 T02430142  RH  053%=      5-min Rain = 0
KAM1 191218Z 20013KT 24/14 A2996 RMK A01 T02440142  RH  053%=      5-min Rain = 0
KAM1 191219Z 20012KT 24/14 A2996 RMK A01 T02440142  RH  053%=      5-min Rain = 0
KAM1 191220Z 21014KT 24/14 A2996 RMK A01 T02440142  RH  053%=      5-min Rain = 0
KAM1 191221Z 20014KT 25/14 A2996 RMK A01 T02450142  RH  053%=      5-min Rain = 0
KAM1 191222Z 20014KT 25/14 A2996 RMK A01 T02450142  RH  052%=      5-min Rain = 0
KAM1 191223Z 21014KT 25/14 A2996 RMK A01 T02460142  RH  052%=      5-min Rain = 0
KAM1 191224Z 20012G17KT 25/14 A2996 RMK A01 T02460142  RH  052%=      5-min Rain = 0
KAM1 191225Z 20012KT 25/14 A2996 RMK A01 T02460142  RH  053%=      5-min Rain = 0
KAM1 191226Z 20013KT 25/14 A2996 RMK A01 T02450142  RH  052%=      5-min Rain = 0
KAM1 191227Z 20013KT 25/14 A2996 RMK A01 T02450142  RH  052%=      5-min Rain = 0
KAM1 191228Z 20015KT 25/14 A2996 RMK A01 T02450142  RH  052%=      5-min Rain = 0
KAM1 191229Z 21011KT 25/14 A2996 RMK A01 T02450141  RH  052%=      5-min Rain = 0
KAM1 191230Z 20014KT 25/14 A2996 RMK A01 T02450141  RH  052%=      5-min Rain = 0
KAM1 191231Z 21015KT 25/14 A2996 RMK A01 T02450141  RH  052%=      5-min Rain = 0
KAM1 191232Z 20013G18KT 25/14 A2996 RMK A01 T02460142  RH  052%=      5-min Rain = 0
KAM1 191233Z 20015G20KT 25/14 A2996 RMK A01 T02460141  RH  052%=      5-min Rain = 0
KAM1 191234Z 20018KT 25/14 A2996 RMK A01 T02470141  RH  052%=      5-min Rain = 0
KAM1 191235Z 20013KT 25/14 A2996 RMK A01 T02470141  RH  052%=      5-min Rain = 0
KAM1 191236Z 20016KT 25/14 A2996 RMK A01 T02480141  RH  052%=      5-min Rain = 0
KAM1 191237Z 20013KT 25/14 A2996 RMK A01 T02480141  RH  052%=      5-min Rain = 0
KAM1 191238Z 20016KT 25/14 A2996 RMK A01 T02480142  RH  052%=      5-min Rain = 0
KAM1 191239Z 20015KT 25/14 A2996 RMK A01 T02480141  RH  051%=      5-min Rain = 0
KAM1 191240Z 20019KT 25/14 A2996 RMK A01 T02480141  RH  051%=      5-min Rain = 0
KAM1 191241Z 20015KT 25/14 A2995 RMK A01 T02490141  RH  051%=      5-min Rain = 0
KAM1 191242Z 20015KT 25/14 A2995 RMK A01 T02490141  RH  051%=      5-min Rain = 0
KAM1 191243Z 20015G22KT 25/14 A2995 RMK A01 T02490141  RH  051%=      5-min Rain = 0
KAM1 191244Z 20017G22KT 25/14 A2995 RMK A01 T02490142  RH  051%=      5-min Rain = 0
KAM1 191245Z 19018KT 25/14 A2995 RMK A01 T02490141  RH  051%=      5-min Rain = 0
KAM1 191246Z 20016KT 25/14 A2995 RMK A01 T02500141  RH  051%=      5-min Rain = 0
KAM1 191247Z 20014KT 25/14 A2995 RMK A01 T02500141  RH  051%=      5-min Rain = 0
KAM1 191248Z 20014KT 25/14 A2996 RMK A01 T02500141  RH  051%=      5-min Rain = 0
KAM1 191249Z 20016KT 25/14 A2995 RMK A01 T02500141  RH  051%=      5-min Rain = 0
KAM1 191250Z 20015KT 25/14 A2995 RMK A01 T02500141  RH  051%=      5-min Rain = 0
KAM1 191251Z 20016KT 25/14 A2995 RMK A01 T02500141  RH  051%=      5-min Rain = 0
KAM1 191252Z 20015G21KT 25/14 A2995 RMK A01 T02510141  RH  051%=      5-min Rain = 0
KAM1 191253Z 20016G21KT 25/14 A2995 RMK A01 T02510141  RH  050%=      5-min Rain = 0
KAM1 191254Z 20014G20KT 25/14 A2995 RMK A01 T02510141  RH  050%=      5-min Rain = 0
KAM1 191255Z 20014KT 25/14 A2996 RMK A01 T02520142  RH  050%=      5-min Rain = 0
KAM1 191256Z 20015KT 25/14 A2995 RMK A01 T02510141  RH  050%=      5-min Rain = 0
KAM1 191257Z 20012G17KT 25/14 A2996 RMK A01 T02520141  RH  050%=      5-min Rain = 0
KAM1 191258Z 20017KT 25/14 A2995 RMK A01 T02520141  RH  050%=      5-min Rain = 0
KAM1 191259Z 19016KT 25/14 A2996 RMK A01 T02520141  RH  050%=      5-min Rain = 0
KAM1 191300Z 20013KT 25/14 A2996 RMK A01 T02530142  RH  050%=      5-min Rain = 0
KAM1 191301Z 20016KT 25/14 A2995 RMK A01 T02530142  RH  050%=      5-min Rain = 0
KAM1 191302Z 20016KT 25/14 A2995 RMK A01 T02540142  RH  050%=      5-min Rain = 0
KAM1 191303Z 20013KT 25/14 A2995 RMK A01 T02540142  RH  050%=      5-min Rain = 0
KAM1 191304Z 21014KT 25/14 A2995 RMK A01 T02540142  RH  050%=      5-min Rain = 0
KAM1 191305Z 20015G22KT 26/14 A2996 RMK A01 T02550142  RH  049%=      5-min Rain = 0
KAM1 191306Z 20019G24KT 26/14 A2996 RMK A01 T02550141  RH  049%=      5-min Rain = 0
KAM1 191307Z 20015G21KT 26/14 A2996 RMK A01 T02560141  RH  049%=      5-min Rain = 0
KAM1 191308Z 20017KT 26/14 A2996 RMK A01 T02560141  RH  049%=      5-min Rain = 0
KAM1 191309Z 21017G23KT 26/14 A2996 RMK A01 T02570141  RH  049%=      5-min Rain = 0
KAM1 191310Z 20020G25KT 26/14 A2996 RMK A01 T02570141  RH  049%=      5-min Rain = 0
KAM1 191311Z 20015KT 26/14 A2996 RMK A01 T02580141  RH  049%=      5-min Rain = 0
KAM1 191312Z 20016KT 26/14 A2996 RMK A01 T02580142  RH  049%=      5-min Rain = 0
KAM1 191313Z 21016G21KT 26/14 A2996 RMK A01 T02580141  RH  048%=      5-min Rain = 0
KAM1 191314Z 20016G23KT 26/14 A2996 RMK A01 T02590142  RH  048%=      5-min Rain = 0
KAM1 191315Z 20016G21KT 26/14 A2996 RMK A01 T02590141  RH  048%=      5-min Rain = 0
KAM1 191316Z 21017KT 26/14 A2996 RMK A01 T02600142  RH  048%=      5-min Rain = 0
KAM1 191317Z 20016G21KT 26/14 A2996 RMK A01 T02600141  RH  048%=      5-min Rain = 0
KAM1 191318Z 20018G23KT 26/14 A2996 RMK A01 T02600141  RH  048%=      5-min Rain = 0
KAM1 191319Z 20015KT 26/14 A2996 RMK A01 T02600141  RH  048%=      5-min Rain = 0
KAM1 191320Z 21016G21KT 26/14 A2996 RMK A01 T02610142  RH  048%=      5-min Rain = 0
KAM1 191321Z 20019G24KT 26/14 A2996 RMK A01 T02610142  RH  048%=      5-min Rain = 0
KAM1 191322Z 21018KT 26/14 A2995 RMK A01 T02610141  RH  048%=      5-min Rain = 0
KAM1 191323Z 20019KT 26/14 A2995 RMK A01 T02610141  RH  048%=      5-min Rain = 0
KAM1 191324Z 21017KT 26/14 A2996 RMK A01 T02610141  RH  048%=      5-min Rain = 0
KAM1 191325Z 20014KT 26/14 A2996 RMK A01 T02610142  RH  048%=      5-min Rain = 0
KAM1 191326Z 21014KT 26/14 A2996 RMK A01 T02620143  RH  048%=      5-min Rain = 0
KAM1 191327Z 20015KT 26/14 A2996 RMK A01 T02620143  RH  048%=      5-min Rain = 0
KAM1 191328Z 20019KT 26/14 A2996 RMK A01 T02620142  RH  047%=      5-min Rain = 0
KAM1 191329Z 20017KT 26/14 A2996 RMK A01 T02630143  RH  048%=      5-min Rain = 0
KAM1 191330Z 20017G22KT 26/14 A2996 RMK A01 T02630142  RH  047%=      5-min Rain = 0
KAM1 191331Z 20012G17KT 26/14 A2996 RMK A01 T02630143  RH  047%=      5-min Rain = 0
KAM1 191332Z 21015G21KT 26/14 A2996 RMK A01 T02640143  RH  047%=      5-min Rain = 0
KAM1 191333Z 20018G23KT 26/14 A2996 RMK A01 T02640142  RH  047%=      5-min Rain = 0
KAM1 191334Z 20017KT 26/14 A2996 RMK A01 T02640142  RH  047%=      5-min Rain = 0
KAM1 191335Z 20019G24KT 26/14 A2996 RMK A01 T02640142  RH  047%=      5-min Rain = 0
KAM1 191336Z 21020KT 26/14 A2996 RMK A01 T02640142  RH  047%=      5-min Rain = 0
KAM1 191337Z 20018KT 26/14 A2996 RMK A01 T02640142  RH  047%=      5-min Rain = 0
KAM1 191338Z 20019KT 26/14 A2996 RMK A01 T02640142  RH  047%=      5-min Rain = 0
KAM1 191339Z 20020KT 26/14 A2996 RMK A01 T02640142  RH  047%=      5-min Rain = 0
KAM1 191340Z 19018KT 26/14 A2996 RMK A01 T02640142  RH  047%=      5-min Rain = 0
KAM1 191341Z 20018G23KT 27/14 A2996 RMK A01 T02650142  RH  047%=      5-min Rain = 0
KAM1 191342Z 20017KT 27/14 A2996 RMK A01 T02650143  RH  047%=      5-min Rain = 0
KAM1 191343Z 20018KT 27/14 A2996 RMK A01 T02660143  RH  047%=      5-min Rain = 0
KAM1 191344Z 19018G24KT 27/14 A2996 RMK A01 T02670143  RH  047%=      5-min Rain = 0
KAM1 191345Z 20018G25KT 27/14 A2996 RMK A01 T02670143  RH  046%=      5-min Rain = 0
KAM1 191346Z 20019KT 27/14 A2996 RMK A01 T02680143  RH  046%=      5-min Rain = 0
KAM1 191347Z 20017KT 27/14 A2996 RMK A01 T02680143  RH  046%=      5-min Rain = 0
KAM1 191348Z 19017G23KT 27/14 A2996 RMK A01 T02690144  RH  046%=      5-min Rain = 0
KAM1 191349Z 20020G26KT 27/14 A2996 RMK A01 T02700144  RH  046%=      5-min Rain = 0
KAM1 191350Z 21021KT 27/14 A2996 RMK A01 T02700143  RH  046%=      5-min Rain = 0
KAM1 191351Z 20018G26KT 27/14 A2996 RMK A01 T02700143  RH  046%=      5-min Rain = 0
KAM1 191352Z 20018G24KT 27/14 A2996 RMK A01 T02700144  RH  046%=      5-min Rain = 0
KAM1 191353Z 20019KT 27/14 A2996 RMK A01 T02710144  RH  046%=      5-min Rain = 0
KAM1 191354Z 20021KT 27/14 A2996 RMK A01 T02710143  RH  045%=      5-min Rain = 0
KAM1 191355Z 20020G25KT 27/14 A2996 RMK A01 T02710143  RH  045%=      5-min Rain = 0
KAM1 191356Z 19022G28KT 27/14 A2996 RMK A01 T02720143  RH  045%=      5-min Rain = 0
KAM1 191357Z 20024KT 27/14 A2996 RMK A01 T02720143  RH  045%=      5-min Rain = 0
KAM1 191358Z 20024KT 27/14 A2996 RMK A01 T02720143  RH  045%=      5-min Rain = 0
KAM1 191359Z 20021G27KT 27/14 A2996 RMK A01 T02720143  RH  045%=      5-min Rain = 0
KAM1 191400Z 20017KT 27/14 A2996 RMK A01 T02720144  RH  045%=      5-min Rain = 0
KAM1 191401Z 21021KT 27/14 A2996 RMK A01 T02730144  RH  045%=      5-min Rain = 0
KAM1 191402Z 21017G22KT 27/14 A2996 RMK A01 T02740144  RH  045%=      5-min Rain = 0
KAM1 191403Z 21017KT 27/15 A2996 RMK A01 T02740145  RH  045%=      5-min Rain = 0
KAM1 191404Z 20016G21KT 28/15 A2996 RMK A01 T02750145  RH  045%=      5-min Rain = 0
KAM1 191405Z 20018G24KT 28/15 A2996 RMK A01 T02770146  RH  045%=      5-min Rain = 0
KAM1 191406Z 20022G27KT 28/14 A2996 RMK A01 T02770144  RH  044%=      5-min Rain = 0
KAM1 191407Z 20020G26KT 28/14 A2996 RMK A01 T02770144  RH  044%=      5-min Rain = 0
KAM1 191408Z 20020KT 28/14 A2996 RMK A01 T02760144  RH  044%=      5-min Rain = 0
KAM1 191409Z 21020KT 28/15 A2996 RMK A01 T02770145  RH  044%=      5-min Rain = 0
KAM1 191410Z 20019KT 28/14 A2996 RMK A01 T02770144  RH  044%=      5-min Rain = 0
KAM1 191411Z 20018G24KT 28/15 A2996 RMK A01 T02770145  RH  044%=      5-min Rain = 0
KAM1 191412Z 20021G28KT 28/15 A2996 RMK A01 T02780146  RH  044%=      5-min Rain = 0
KAM1 191413Z 20021KT 28/15 A2996 RMK A01 T02790145  RH  044%=      5-min Rain = 0
KAM1 191414Z 19020G26KT 28/15 A2996 RMK A01 T02790145  RH  044%=      5-min Rain = 0
KAM1 191415Z 20020KT 28/15 A2996 RMK A01 T02790145  RH  044%=      5-min Rain = 0
KAM1 191416Z 20015KT 28/15 A2996 RMK A01 T02790145  RH  044%=      5-min Rain = 0
KAM1 191417Z 20018KT 28/15 A2996 RMK A01 T02790145  RH  044%=      5-min Rain = 0
KAM1 191418Z 19017KT 28/15 A2996 RMK A01 T02800146  RH  044%=      5-min Rain = 0
KAM1 191419Z 20014G19KT 28/15 A2996 RMK A01 T02810147  RH  044%=      5-min Rain = 0
KAM1 191420Z 20016KT 28/15 A2996 RMK A01 T02820146  RH  043%=      5-min Rain = 0
KAM1 191421Z 20017G23KT 28/15 A2996 RMK A01 T02830147  RH  043%=      5-min Rain = 0
KAM1 191422Z 20018G24KT 28/15 A2996 RMK A01 T02840145  RH  043%=      5-min Rain = 0
KAM1 191423Z 21016KT 28/15 A2996 RMK A01 T02830146  RH  043%=      5-min Rain = 0
KAM1 191424Z 20015KT 28/15 A2996 RMK A01 T02840147  RH  043%=      5-min Rain = 0
KAM1 191425Z 19016KT 29/15 A2996 RMK A01 T02850147  RH  043%=      5-min Rain = 0
KAM1 191426Z 20018KT 29/15 A2996 RMK A01 T02850147  RH  043%=      5-min Rain = 0
KAM1 191427Z 20016KT 29/15 A2996 RMK A01 T02850147  RH  043%=      5-min Rain = 0
KAM1 191428Z 19015G21KT 29/15 A2996 RMK A01 T02850147  RH  043%=      5-min Rain = 0
KAM1 191429Z 19017G24KT 29/15 A2996 RMK A01 T02850148  RH  043%=      5-min Rain = 0
KAM1 191430Z 19019KT 29/15 A2996 RMK A01 T02860146  RH  042%=      5-min Rain = 0
KAM1 191431Z 19018KT 29/15 A2996 RMK A01 T02860147  RH  043%=      5-min Rain = 0
KAM1 191432Z 19020KT 29/15 A2996 RMK A01 T02860146  RH  042%=      5-min Rain = 0
KAM1 191433Z 19019G24KT 29/15 A2996 RMK A01 T02850146  RH  042%=      5-min Rain = 0
KAM1 191434Z 19020G25KT 29/15 A2996 RMK A01 T02850146  RH  043%=      5-min Rain = 0
KAM1 191435Z 20020G25KT 29/15 A2996 RMK A01 T02860145  RH  042%=      5-min Rain = 0
KAM1 191436Z 20018KT 29/15 A2997 RMK A01 T02860146  RH  042%=      5-min Rain = 0
KAM1 191437Z 20015KT 29/15 A2996 RMK A01 T02860147  RH  043%=      5-min Rain = 0
KAM1 191438Z 20017G22KT 29/15 A2997 RMK A01 T02870147  RH  043%=      5-min Rain = 0
KAM1 191439Z 20016KT 29/15 A2997 RMK A01 T02870147  RH  042%=      5-min Rain = 0
KAM1 191440Z 20019KT 29/15 A2997 RMK A01 T02890148  RH  042%=      5-min Rain = 0
KAM1 191441Z 19018KT 29/15 A2997 RMK A01 T02900147  RH  042%=      5-min Rain = 0
KAM1 191442Z 19015KT 29/15 A2997 RMK A01 T02890147  RH  042%=      5-min Rain = 0
KAM1 191443Z 20014KT 29/15 A2997 RMK A01 T02900148  RH  042%=      5-min Rain = 0
KAM1 191444Z 20017KT 29/15 A2997 RMK A01 T02920148  RH  042%=      5-min Rain = 0
KAM1 191445Z 20018KT 29/15 A2997 RMK A01 T02920147  RH  041%=      5-min Rain = 0
KAM1 191446Z 20017KT 29/15 A2997 RMK A01 T02910147  RH  041%=      5-min Rain = 0
KAM1 191447Z 20015KT 29/15 A2997 RMK A01 T02910148  RH  042%=      5-min Rain = 0
KAM1 191448Z 19016KT 29/15 A2997 RMK A01 T02920149  RH  042%=      5-min Rain = 0
KAM1 191449Z 19013KT 29/15 A2997 RMK A01 T02930148  RH  041%=      5-min Rain = 0
KAM1 191450Z 19019KT 29/15 A2997 RMK A01 T02940148  RH  041%=      5-min Rain = 0
KAM1 191451Z 19016KT 29/15 A2997 RMK A01 T02940149  RH  041%=      5-min Rain = 0
KAM1 191452Z 20019KT 29/15 A2997 RMK A01 T02940148  RH  041%=      5-min Rain = 0
KAM1 191453Z 19017KT 29/15 A2997 RMK A01 T02940147  RH  041%=      5-min Rain = 0
KAM1 191454Z 19017G22KT 29/15 A2997 RMK A01 T02940147  RH  041%=      5-min Rain = 0
KAM1 191455Z 21016G22KT 29/15 A2997 RMK A01 T02930147  RH  041%=      5-min Rain = 0
KAM1 191456Z 20017KT 29/15 A2997 RMK A01 T02940148  RH  041%=      5-min Rain = 0
KAM1 191457Z 20016KT 30/15 A2997 RMK A01 T02960147  RH  040%=      5-min Rain = 0
KAM1 191458Z 20015KT 30/15 A2997 RMK A01 T02960147  RH  040%=      5-min Rain = 0
KAM1 191459Z 20014G19KT 30/15 A2997 RMK A01 T02950148  RH  041%=      5-min Rain = 0
KAM1 191500Z 20018KT 30/15 A2997 RMK A01 T02970148  RH  040%=      5-min Rain = 0
KAM1 191501Z 19017KT 30/15 A2997 RMK A01 T02980147  RH  040%=      5-min Rain = 0
KAM1 191502Z 19014KT 30/15 A2997 RMK A01 T02980149  RH  040%=      5-min Rain = 0
KAM1 191503Z 20017KT 30/15 A2997 RMK A01 T02980148  RH  040%=      5-min Rain = 0
KAM1 191504Z 19014KT 30/15 A2997 RMK A01 T02980148  RH  040%=      5-min Rain = 0
KAM1 191505Z 20015KT 30/15 A2997 RMK A01 T02990149  RH  040%=      5-min Rain = 0
KAM1 191506Z 20011G16KT 30/15 A2997 RMK A01 T02990149  RH  040%=      5-min Rain = 0
KAM1 191507Z 20011KT 30/15 A2997 RMK A01 T03010150  RH  040%=      5-min Rain = 0
KAM1 191508Z 21013KT 30/15 A2997 RMK A01 T03020150  RH  040%=      5-min Rain = 0
KAM1 191509Z 20012KT 30/15 A2997 RMK A01 T03030150  RH  039%=      5-min Rain = 0
KAM1 191510Z 19013G18KT 30/15 A2997 RMK A01 T03020150  RH  040%=      5-min Rain = 0
KAM1 191511Z 19013KT 30/15 A2997 RMK A01 T03030150  RH  039%=      5-min Rain = 0
KAM1 191512Z 19012KT 31/15 A2997 RMK A01 T03050152  RH  040%=      5-min Rain = 0
KAM1 191513Z 21014G22KT 31/15 A2997 RMK A01 T03070152  RH  039%=      5-min Rain = 0
KAM1 191514Z 21017KT 31/15 A2997 RMK A01 T03080149  RH  038%=      5-min Rain = 0
KAM1 191515Z 21015KT 31/15 A2997 RMK A01 T03070148  RH  038%=      5-min Rain = 0
KAM1 191516Z 21017KT 31/15 A2997 RMK A01 T03050148  RH  038%=      5-min Rain = 0
KAM1 191517Z 20016KT 30/15 A2997 RMK A01 T03040148  RH  039%=      5-min Rain = 0
KAM1 191518Z 20015KT 31/15 A2997 RMK A01 T03050148  RH  039%=      5-min Rain = 0
KAM1 191519Z 19015KT 31/15 A2997 RMK A01 T03050149  RH  039%=      5-min Rain = 0
KAM1 191520Z 19014KT 31/15 A2997 RMK A01 T03050149  RH  039%=      5-min Rain = 0
KAM1 191521Z 20010KT 31/15 A2997 RMK A01 T03050151  RH  039%=      5-min Rain = 0
KAM1 191522Z 20012KT 31/15 A2997 RMK A01 T03080152  RH  039%=      5-min Rain = 0
KAM1 191523Z 20015KT 31/15 A2997 RMK A01 T03100150  RH  038%=      5-min Rain = 0
KAM1 191524Z 20015KT 31/15 A2997 RMK A01 T03100151  RH  038%=      5-min Rain = 0
KAM1 191525Z 20017KT 31/15 A2997 RMK A01 T03100148  RH  037%=      5-min Rain = 0
KAM1 191526Z 20016G21KT 31/15 A2997 RMK A01 T03080147  RH  038%=      5-min Rain = 0
KAM1 191527Z 20013KT 31/15 A2997 RMK A01 T03080149  RH  038%=      5-min Rain = 0
KAM1 191528Z 21014G19KT 31/15 A2997 RMK A01 T03090150  RH  038%=      5-min Rain = 0
KAM1 191529Z 20014KT 31/15 A2997 RMK A01 T03100149  RH  038%=      5-min Rain = 0
KAM1 191530Z 21012KT 31/15 A2997 RMK A01 T03090149  RH  038%=      5-min Rain = 0
KAM1 191531Z 21012G17KT 31/15 A2997 RMK A01 T03090151  RH  038%=      5-min Rain = 0
KAM1 191532Z 21013KT 31/15 A2997 RMK A01 T03100150  RH  038%=      5-min Rain = 0
KAM1 191533Z 20012KT 31/15 A2997 RMK A01 T03120152  RH  038%=      5-min Rain = 0
KAM1 191534Z 20013KT 31/15 A2997 RMK A01 T03140150  RH  037%=      5-min Rain = 0
KAM1 191535Z 21014KT 31/15 A2997 RMK A01 T03140151  RH  037%=      5-min Rain = 0
KAM1 191536Z 20012KT 31/15 A2997 RMK A01 T03140151  RH  037%=      5-min Rain = 0
KAM1 191537Z 20011KT 31/15 A2997 RMK A01 T03130151  RH  037%=      5-min Rain = 0
KAM1 191538Z 20013KT 31/15 A2997 RMK A01 T03140151  RH  037%=      5-min Rain = 0
KAM1 191539Z 20014KT 31/15 A2997 RMK A01 T03140150  RH  037%=      5-min Rain = 0
KAM1 191540Z 20012KT 31/15 A2997 RMK A01 T03140150  RH  037%=      5-min Rain = 0
KAM1 191541Z 20011KT 31/15 A2997 RMK A01 T03140152  RH  037%=      5-min Rain = 0
KAM1 191542Z 19013KT 32/15 A2997 RMK A01 T03160153  RH  037%=      5-min Rain = 0
KAM1 191543Z 18013KT 32/15 A2997 RMK A01 T03180152  RH  037%=      5-min Rain = 0
KAM1 191544Z 19010KT 32/15 A2997 RMK A01 T03170152  RH  037%=      5-min Rain = 0
KAM1 191545Z 20010G15KT 32/16 A2997 RMK A01 T03200157  RH  038%=      5-min Rain = 0
KAM1 191546Z 19010KT 32/16 A2997 RMK A01 T03240156  RH  036%=      5-min Rain = 0
KAM1 191547Z 19011KT 32/15 A2997 RMK A01 T03240154  RH  036%=      5-min Rain = 0
KAM1 191548Z 19017KT 32/15 A2997 RMK A01 T03240151  RH  035%=      5-min Rain = 0
KAM1 191549Z 20013KT 32/15 A2997 RMK A01 T03220151  RH  036%=      5-min Rain = 0
KAM1 191550Z 20014KT 32/15 A2997 RMK A01 T03210151  RH  036%=      5-min Rain = 0
KAM1 191551Z 19015KT 32/15 A2997 RMK A01 T03210150  RH  036%=      5-min Rain = 0
KAM1 191552Z 19014G19KT 32/15 A2997 RMK A01 T03190149  RH  036%=      5-min Rain = 0
KAM1 191553Z 20016KT 32/15 A2997 RMK A01 T03180148  RH  036%=      5-min Rain = 0
KAM1 191554Z 19013KT 32/15 A2997 RMK A01 T03170150  RH  036%=      5-min Rain = 0
KAM1 191555Z 21014KT 32/15 A2997 RMK A01 T03200150  RH  036%=      5-min Rain = 0
KAM1 191556Z 21014KT 32/15 A2997 RMK A01 T03210150  RH  036%=      5-min Rain = 0
KAM1 191557Z 22014KT 32/15 A2997 RMK A01 T03220152  RH  036%=      5-min Rain = 0
KAM1 191558Z 21016KT 32/15 A2997 RMK A01 T03230150  RH  035%=      5-min Rain = 0
KAM1 191559Z 20013KT 32/15 A2997 RMK A01 T03220150  RH  036%=      5-min Rain = 0
KAM1 191600Z 21014KT 32/15 A2997 RMK A01 T03210152  RH  036%=      5-min Rain = 0
KAM1 191601Z 20014KT 32/15 A2997 RMK A01 T03230151  RH  036%=      5-min Rain = 0
KAM1 191602Z 20016KT 32/15 A2997 RMK A01 T03220151  RH  036%=      5-min Rain = 0
KAM1 191603Z 20014KT 32/15 A2997 RMK A01 T03220150  RH  035%=      5-min Rain = 0
KAM1 191604Z 20013KT 32/15 A2997 RMK A01 T03220150  RH  036%=      5-min Rain = 0
KAM1 191605Z 19013KT 32/15 A2997 RMK A01 T03220153  RH  036%=      5-min Rain = 0
KAM1 191606Z 19013KT 32/15 A2996 RMK A01 T03240152  RH  035%=      5-min Rain = 0
KAM1 191607Z 20011KT 33/15 A2996 RMK A01 T03260153  RH  035%=      5-min Rain = 0
KAM1 191608Z 18010KT 33/15 A2996 RMK A01 T03270154  RH  035%=      5-min Rain = 0
KAM1 191609Z 20013KT 33/15 A2996 RMK A01 T03280154  RH  035%=      5-min Rain = 0
KAM1 191610Z 20015KT 33/15 A2996 RMK A01 T03280152  RH  035%=      5-min Rain = 0
KAM1 191611Z 19014KT 33/15 A2996 RMK A01 T03260150  RH  035%=      5-min Rain = 0
KAM1 191612Z 20015KT 32/15 A2996 RMK A01 T03240150  RH  035%=      5-min Rain = 0
KAM1 191613Z 20015G20KT 33/15 A2996 RMK A01 T03250151  RH  035%=      5-min Rain = 0
KAM1 191614Z 18014KT 33/15 A2996 RMK A01 T03260150  RH  035%=      5-min Rain = 0
KAM1 191615Z 18013KT 33/15 A2996 RMK A01 T03270151  RH  035%=      5-min Rain = 0
KAM1 191616Z 20011KT 33/16 A2996 RMK A01 T03310155  RH  035%=      5-min Rain = 0
KAM1 191617Z 20014KT 33/15 A2996 RMK A01 T03340153  RH  034%=      5-min Rain = 0
KAM1 191618Z 19014G19KT 33/15 A2996 RMK A01 T03330150  RH  033%=      5-min Rain = 0
KAM1 191619Z 18015KT 33/15 A2996 RMK A01 T03300151  RH  034%=      5-min Rain = 0
KAM1 191620Z 19014KT 33/15 A2996 RMK A01 T03300152  RH  034%=      5-min Rain = 0
KAM1 191621Z 18012KT 33/15 A2996 RMK A01 T03310150  RH  034%=      5-min Rain = 0
KAM1 191622Z 19014KT 33/15 A2996 RMK A01 T03320152  RH  034%=      5-min Rain = 0
KAM1 191623Z 19014KT 33/15 A2996 RMK A01 T03340153  RH  034%=      5-min Rain = 0
KAM1 191624Z 20013KT 33/15 A2996 RMK A01 T03340152  RH  034%=      5-min Rain = 0
KAM1 191625Z 21014KT 33/15 A2996 RMK A01 T03340151  RH  033%=      5-min Rain = 0
KAM1 191626Z 21013KT 33/15 A2996 RMK A01 T03320151  RH  034%=      5-min Rain = 0
KAM1 191627Z 21017KT 33/15 A2996 RMK A01 T03310151  RH  034%=      5-min Rain = 0
KAM1 191628Z 22013KT 33/15 A2996 RMK A01 T03310151  RH  034%=      5-min Rain = 0
KAM1 191629Z 22014KT 33/15 A2996 RMK A01 T03310152  RH  034%=      5-min Rain = 0
KAM1 191630Z 21012KT 33/15 A2996 RMK A01 T03330153  RH  034%=      5-min Rain = 0
KAM1 191631Z 19012KT 34/15 A2996 RMK A01 T03350152  RH  033%=      5-min Rain = 0
KAM1 191632Z 19012KT 34/15 A2996 RMK A01 T03350152  RH  033%=      5-min Rain = 0
KAM1 191633Z 19010KT 34/15 A2996 RMK A01 T03350154  RH  034%=      5-min Rain = 0
KAM1 191634Z 19014KT 34/16 A2996 RMK A01 T03380155  RH  033%=      5-min Rain = 0
KAM1 191635Z 19015KT 34/15 A2996 RMK A01 T03400154  RH  033%=      5-min Rain = 0
KAM1 191636Z 19017KT 34/15 A2996 RMK A01 T03400153  RH  033%=      5-min Rain = 0
KAM1 191637Z 19015KT 34/15 A2996 RMK A01 T03390151  RH  032%=      5-min Rain = 0
KAM1 191638Z 20014G19KT 34/15 A2996 RMK A01 T03380153  RH  033%=      5-min Rain = 0
KAM1 191639Z 21012KT 34/15 A2996 RMK A01 T03390152  RH  033%=      5-min Rain = 0
KAM1 191640Z 20010KT 34/15 A2996 RMK A01 T03370152  RH  033%=      5-min Rain = 0
KAM1 191641Z 20014KT 34/16 A2996 RMK A01 T03380155  RH  034%=      5-min Rain = 0
KAM1 191642Z 19016KT 34/15 A2996 RMK A01 T03390152  RH  033%=      5-min Rain = 0
KAM1 191643Z 19013G18KT 34/15 A2996 RMK A01 T03370151  RH  033%=      5-min Rain = 0
KAM1 191644Z 19018KT 34/15 A2996 RMK A01 T03370150  RH  033%=      5-min Rain = 0
KAM1 191645Z 19014KT 34/15 A2996 RMK A01 T03370149  RH  032%=      5-min Rain = 0
KAM1 191646Z 19014KT 34/15 A2996 RMK A01 T03390150  RH  032%=      5-min Rain = 0
KAM1 191647Z 20015KT 34/15 A2996 RMK A01 T03390150  RH  032%=      5-min Rain = 0
KAM1 191648Z 20013KT 34/15 A2996 RMK A01 T03380151  RH  033%=      5-min Rain = 0
KAM1 191649Z 21013KT 34/15 A2996 RMK A01 T03370150  RH  033%=      5-min Rain = 0
KAM1 191650Z 18012KT 34/15 A2996 RMK A01 T03370153  RH  033%=      5-min Rain = 0
KAM1 191651Z 18011KT 34/15 A2996 RMK A01 T03400153  RH  033%=      5-min Rain = 0
KAM1 191652Z 19014KT 34/15 A2996 RMK A01 T03440154  RH  032%=      5-min Rain = 0
KAM1 191653Z 19016KT 35/15 A2996 RMK A01 T03460152  RH  031%=      5-min Rain = 0
KAM1 191654Z 19017KT 35/15 A2996 RMK A01 T03450151  RH  031%=      5-min Rain = 0
KAM1 191655Z 21012KT 34/15 A2996 RMK A01 T03430151  RH  032%=      5-min Rain = 0
KAM1 191656Z 19011KT 35/16 A2996 RMK A01 T03460155  RH  032%=      5-min Rain = 0
KAM1 191657Z 19012KT 35/15 A2995 RMK A01 T03490153  RH  031%=      5-min Rain = 0
KAM1 191658Z 19013G19KT 35/15 A2995 RMK A01 T03500153  RH  031%=      5-min Rain = 0
KAM1 191659Z 21016KT 35/15 A2995 RMK A01 T03490152  RH  031%=      5-min Rain = 0
KAM1 191700Z 22014KT 35/15 A2995 RMK A01 T03470152  RH  031%=      5-min Rain = 0
KAM1 191701Z 21013G18KT 35/15 A2995 RMK A01 T03460151  RH  031%=      5-min Rain = 0
KAM1 191702Z 19013G21KT 35/15 A2995 RMK A01 T03460153  RH  032%=      5-min Rain = 0
KAM1 191703Z 21015KT 35/15 A2995 RMK A01 T03480153  RH  031%=      5-min Rain = 0
KAM1 191704Z 22013KT 35/15 A2995 RMK A01 T03500152  RH  031%=      5-min Rain = 0
KAM1 191705Z 21013KT 35/15 A2995 RMK A01 T03480152  RH  031%=      5-min Rain = 0
KAM1 191706Z 21017KT 35/15 A2995 RMK A01 T03470153  RH  031%=      5-min Rain = 0
KAM1 191707Z 21015KT 35/15 A2995 RMK A01 T03460152  RH  031%=      5-min Rain = 0
KAM1 191708Z 20013KT 35/15 A2995 RMK A01 T03460152  RH  031%=      5-min Rain = 0
KAM1 191709Z 21011KT 35/15 A2995 RMK A01 T03450153  RH  032%=      5-min Rain = 0
KAM1 191710Z 21012KT 35/16 A2995 RMK A01 T03470155  RH  032%=      5-min Rain = 0
KAM1 191711Z 21014KT 35/16 A2995 RMK A01 T03500155  RH  031%=      5-min Rain = 0
KAM1 191712Z 22017KT 35/15 A2995 RMK A01 T03510152  RH  030%=      5-min Rain = 0
KAM1 191713Z 21018KT 35/15 A2995 RMK A01 T03510152  RH  031%=      5-min Rain = 0
KAM1 191714Z 20015KT 35/15 A2995 RMK A01 T03500151  RH  031%=      5-min Rain = 0
KAM1 191715Z 21016KT 35/15 A2995 RMK A01 T03480151  RH  031%=      5-min Rain = 0
KAM1 191716Z 22015KT 35/15 A2995 RMK A01 T03480149  RH  030%=      5-min Rain = 0
KAM1 191717Z 21015KT 35/15 A2995 RMK A01 T03480149  RH  031%=      5-min Rain = 0
KAM1 191718Z 21017KT 35/15 A2995 RMK A01 T03480152  RH  031%=      5-min Rain = 0
KAM1 191719Z 19014KT 35/15 A2995 RMK A01 T03480152  RH  031%=      5-min Rain = 0
KAM1 191720Z 20015KT 35/15 A2995 RMK A01 T03480153  RH  031%=      5-min Rain = 0
KAM1 191721Z 21014KT 35/15 A2995 RMK A01 T03480151  RH  031%=      5-min Rain = 0
KAM1 191722Z 22014KT 35/15 A2995 RMK A01 T03510153  RH  031%=      5-min Rain = 0
KAM1 191723Z 21016KT 35/15 A2995 RMK A01 T03540151  RH  030%=      5-min Rain = 0
KAM1 191724Z 22015KT 35/15 A2995 RMK A01 T03540153  RH  030%=      5-min Rain = 0
KAM1 191725Z 19015KT 36/15 A2995 RMK A01 T03550153  RH  030%=      5-min Rain = 0
KAM1 191726Z 20012G17KT 36/16 A2995 RMK A01 T03560155  RH  030%=      5-min Rain = 0
KAM1 191727Z 20013KT 36/16 A2995 RMK A01 T03590157  RH  030%=      5-min Rain = 0
KAM1 191728Z 20015KT 36/16 A2995 RMK A01 T03590155  RH  030%=      5-min Rain = 0
KAM1 191729Z 19015KT 36/15 A2995 RMK A01 T03560153  RH  030%=      5-min Rain = 0
KAM1 191730Z 20011KT 35/15 A2995 RMK A01 T03530153  RH  031%=      5-min Rain = 0
KAM1 191731Z 19014KT 36/16 A2995 RMK A01 T03560155  RH  030%=      5-min Rain = 0
KAM1 191732Z 20013G18KT 36/15 A2995 RMK A01 T03590154  RH  030%=      5-min Rain = 0
KAM1 191733Z 19013KT 36/15 A2995 RMK A01 T03600153  RH  029%=      5-min Rain = 0
KAM1 191734Z 20009KT 36/15 A2995 RMK A01 T03580153  RH  030%=      5-min Rain = 0
KAM1 191735Z 19013G20KT 36/16 A2995 RMK A01 T03590156  RH  030%=      5-min Rain = 0
KAM1 191736Z 20015KT 36/16 A2995 RMK A01 T03590155  RH  030%=      5-min Rain = 0
KAM1 191737Z 20014KT 36/15 A2995 RMK A01 T03600154  RH  029%=      5-min Rain = 0
KAM1 191738Z 21013KT 36/15 A2995 RMK A01 T03560153  RH  030%=      5-min Rain = 0
KAM1 191739Z 20011KT 35/16 A2995 RMK A01 T03540156  RH  031%=      5-min Rain = 0
KAM1 191740Z 21014KT 36/16 A2995 RMK A01 T03580157  RH  030%=      5-min Rain = 0
KAM1 191741Z 21015KT 36/16 A2994 RMK A01 T03590158  RH  030%=      5-min Rain = 0
KAM1 191742Z 22016KT 36/15 A2994 RMK A01 T03600154  RH  029%=      5-min Rain = 0
KAM1 191743Z 22015KT 36/15 A2994 RMK A01 T03580153  RH  029%=      5-min Rain = 0
KAM1 191744Z 22017KT 36/15 A2994 RMK A01 T03570153  RH  030%=      5-min Rain = 0
KAM1 191745Z 21014KT 36/15 A2994 RMK A01 T03570154  RH  030%=      5-min Rain = 0
KAM1 191746Z 21012KT 36/16 A2994 RMK A01 T03570155  RH  030%=      5-min Rain = 0
KAM1 191747Z 20016KT 36/16 A2994 RMK A01 T03600156  RH  030%=      5-min Rain = 0
KAM1 191748Z 21015KT 36/16 A2994 RMK A01 T03620155  RH  029%=      5-min Rain = 0
KAM1 191749Z 21016KT 36/15 A2994 RMK A01 T03630154  RH  029%=      5-min Rain = 0
KAM1 191750Z 20015KT 36/15 A2994 RMK A01 T03600153  RH  029%=      5-min Rain = 0
KAM1 191751Z 20013KT 36/16 A2994 RMK A01 T03580155  RH  030%=      5-min Rain = 0
KAM1 191752Z 19015G20KT 36/16 A2994 RMK A01 T03610155  RH  029%=      5-min Rain = 0
KAM1 191753Z 18014KT 36/15 A2994 RMK A01 T03630151  RH  028%=      5-min Rain = 0
KAM1 191754Z 19015KT 36/15 A2994 RMK A01 T03620153  RH  029%=      5-min Rain = 0
KAM1 191755Z 19015KT 36/15 A2994 RMK A01 T03620154  RH  029%=      5-min Rain = 0
KAM1 191756Z 19013G18KT 36/16 A2994 RMK A01 T03630155  RH  029%=      5-min Rain = 0
KAM1 191757Z 19015KT 36/16 A2994 RMK A01 T03630155  RH  029%=      5-min Rain = 0
KAM1 191758Z 19012KT 36/16 A2994 RMK A01 T03610155  RH  029%=      5-min Rain = 0
KAM1 191759Z 21017KT 36/16 A2994 RMK A01 T03620155  RH  029%=      5-min Rain = 0
KAM1 191800Z 19018KT 36/15 A2994 RMK A01 T03630151  RH  028%=      5-min Rain = 0
KAM1 191801Z 21017KT 36/15 A2994 RMK A01 T03620149  RH  028%=      5-min Rain = 0
KAM1 191802Z 20016KT 36/15 A2994 RMK A01 T03620150  RH  028%=      5-min Rain = 0
KAM1 191803Z 20014KT 36/15 A2994 RMK A01 T03600151  RH  029%=      5-min Rain = 0
KAM1 191804Z 19014KT 36/15 A2994 RMK A01 T03610152  RH  029%=      5-min Rain = 0
KAM1 191805Z 19010KT 36/15 A2994 RMK A01 T03630152  RH  029%=      5-min Rain = 0
KAM1 191806Z 21016G21KT 37/16 A2994 RMK A01 T03650158  RH  029%=      5-min Rain = 0
KAM1 191807Z 20016KT 37/16 A2994 RMK A01 T03680155  RH  028%=      5-min Rain = 0
KAM1 191808Z 21017KT 37/15 A2994 RMK A01 T03690153  RH  028%=      5-min Rain = 0
KAM1 191809Z 21016KT 37/15 A2994 RMK A01 T03690152  RH  028%=      5-min Rain = 0
KAM1 191810Z 19015KT 37/15 A2994 RMK A01 T03670151  RH  028%=      5-min Rain = 0
KAM1 191811Z 20015KT 37/15 A2994 RMK A01 T03670153  RH  028%=      5-min Rain = 0
KAM1 191812Z 21012G17KT 37/16 A2994 RMK A01 T03670155  RH  029%=      5-min Rain = 0
KAM1 191813Z 21016KT 37/15 A2994 RMK A01 T03670148  RH  027%=      5-min Rain = 0
KAM1 191814Z 20017KT 37/15 A2994 RMK A01 T03680148  RH  027%=      5-min Rain = 0
KAM1 191815Z 19014KT 37/15 A2994 RMK A01 T03670149  RH  027%=      5-min Rain = 0
KAM1 191816Z 19015KT 37/15 A2994 RMK A01 T03650153  RH  028%=      5-min Rain = 0
KAM1 191817Z 19014KT 37/15 A2994 RMK A01 T03670153  RH  028%=      5-min Rain = 0
KAM1 191818Z 20015KT 37/15 A2994 RMK A01 T03680154  RH  028%=      5-min Rain = 0
KAM1 191819Z 19013KT 37/15 A2994 RMK A01 T03690151  RH  027%=      5-min Rain = 0
KAM1 191820Z 19012KT 37/16 A2994 RMK A01 T03680155  RH  028%=      5-min Rain = 0
KAM1 191821Z 22013KT 37/15 A2994 RMK A01 T03690153  RH  028%=      5-min Rain = 0
KAM1 191822Z 21014KT 37/15 A2993 RMK A01 T03700154  RH  028%=      5-min Rain = 0
KAM1 191823Z 19015KT 37/16 A2994 RMK A01 T03720155  RH  028%=      5-min Rain = 0
KAM1 191824Z 18014KT 37/15 A2994 RMK A01 T03730148  RH  026%=      5-min Rain = 0
KAM1 191825Z 17013KT 37/15 A2994 RMK A01 T03700150  RH  027%=      5-min Rain = 0
KAM1 191826Z 19014KT 37/15 A2994 RMK A01 T03700150  RH  027%=      5-min Rain = 0
KAM1 191827Z 21015KT 37/15 A2994 RMK A01 T03700147  RH  027%=      5-min Rain = 0
KAM1 191828Z 20014KT 37/15 A2994 RMK A01 T03700145  RH  026%=      5-min Rain = 0
KAM1 191829Z 20013G18KT 37/15 A2994 RMK A01 T03680147  RH  027%=      5-min Rain = 0
KAM1 191830Z 19013G18KT 37/15 A2994 RMK A01 T03680152  RH  028%=      5-min Rain = 0
KAM1 191831Z 19015G21KT 37/15 A2994 RMK A01 T03710150  RH  027%=      5-min Rain = 0
KAM1 191832Z 18017KT 37/15 A2994 RMK A01 T03710150  RH  027%=      5-min Rain = 0
KAM1 191833Z 18016KT 37/15 A2994 RMK A01 T03710150  RH  027%=      5-min Rain = 0
KAM1 191834Z 19015G21KT 37/15 A2994 RMK A01 T03720151  RH  027%=      5-min Rain = 0
KAM1 191835Z 18010KT 37/15 A2993 RMK A01 T03690150  RH  027%=      5-min Rain = 0
KAM1 191836Z 19014KT 37/15 A2993 RMK A01 T03690154  RH  028%=      5-min Rain = 0
KAM1 191837Z 18016KT 37/15 A2993 RMK A01 T03740150  RH  027%=      5-min Rain = 0
KAM1 191838Z 18015KT 37/15 A2993 RMK A01 T03720149  RH  027%=      5-min Rain = 0
KAM1 191839Z 18017KT 37/15 A2993 RMK A01 T03720151  RH  027%=      5-min Rain = 0
KAM1 191840Z 18015KT 37/15 A2993 RMK A01 T03730153  RH  027%=      5-min Rain = 0
KAM1 191841Z 20013KT 37/15 A2993 RMK A01 T03740153  RH  027%=      5-min Rain = 0
KAM1 191842Z 20015KT 38/15 A2993 RMK A01 T03750149  RH  026%=      5-min Rain = 0
KAM1 191843Z 20009KT 37/15 A2993 RMK A01 T03700146  RH  027%=      5-min Rain = 0
KAM1 191844Z 22013G19KT 37/15 A2993 RMK A01 T03690152  RH  028%=      5-min Rain = 0
KAM1 191845Z 22016KT 38/15 A2993 RMK A01 T03750150  RH  026%=      5-min Rain = 0
KAM1 191846Z 22018KT 38/15 A2993 RMK A01 T03760147  RH  026%=      5-min Rain = 0
KAM1 191847Z 21017KT 37/15 A2993 RMK A01 T03740148  RH  026%=      5-min Rain = 0
KAM1 191848Z 20014KT 37/15 A2993 RMK A01 T03720152  RH  027%=      5-min Rain = 0
KAM1 191849Z 21015KT 38/15 A2993 RMK A01 T03760152  RH  027%=      5-min Rain = 0
KAM1 191850Z 21014KT 37/15 A2993 RMK A01 T03740153  RH  027%=      5-min Rain = 0
KAM1 191851Z 21015KT 37/15 A2993 RMK A01 T03740151  RH  027%=      5-min Rain = 0
KAM1 191852Z 21011KT 37/15 A2993 RMK A01 T03720151  RH  027%=      5-min Rain = 0
KAM1 191853Z 21012KT 38/16 A2993 RMK A01 T03750157  RH  028%=      5-min Rain = 0
KAM1 191854Z 19012KT 38/15 A2993 RMK A01 T03790154  RH  027%=      5-min Rain = 0
KAM1 191855Z 19016KT 38/15 A2993 RMK A01 T03800152  RH  026%=      5-min Rain = 0
KAM1 191856Z 18015KT 38/15 A2993 RMK A01 T03780149  RH  026%=      5-min Rain = 0
KAM1 191857Z 18012KT 38/15 A2993 RMK A01 T03750148  RH  026%=      5-min Rain = 0
KAM1 191858Z 20010KT 38/15 A2993 RMK A01 T03750151  RH  027%=      5-min Rain = 0
KAM1 191859Z 20011G16KT 38/16 A2993 RMK A01 T03790155  RH  027%=      5-min Rain = 0
KAM1 191900Z 20019KT 38/15 A2993 RMK A01 T03840153  RH  026%=      5-min Rain = 0
KAM1 191901Z 21015KT 38/15 A2993 RMK A01 T03800150  RH  026%=      5-min Rain = 0
KAM1 191902Z 22018G23KT 38/15 A2993 RMK A01 T03780150  RH  026%=      5-min Rain = 0
KAM1 191903Z 21014KT 38/15 A2993 RMK A01 T03770150  RH  026%=      5-min Rain = 0
KAM1 191904Z 21012G19KT 38/15 A2993 RMK A01 T03770153  RH  027%=      5-min Rain = 0
KAM1 191905Z 21015KT 38/15 A2993 RMK A01 T03800150  RH  026%=      5-min Rain = 0
KAM1 191906Z 21015G20KT 38/15 A2993 RMK A01 T03790150  RH  026%=      5-min Rain = 0
KAM1 191907Z 21015KT 38/15 A2993 RMK A01 T03780152  RH  026%=      5-min Rain = 0
KAM1 191908Z 21018KT 38/15 A2993 RMK A01 T03780150  RH  026%=      5-min Rain = 0
KAM1 191909Z 21015KT 38/15 A2993 RMK A01 T03760150  RH  026%=      5-min Rain = 0
KAM1 191910Z 21016KT 38/15 A2992 RMK A01 T03750149  RH  026%=      5-min Rain = 0
KAM1 191911Z 21015KT 37/15 A2993 RMK A01 T03740151  RH  027%=      5-min Rain = 0
KAM1 191912Z 19011KT 38/15 A2993 RMK A01 T03770149  RH  026%=      5-min Rain = 0
KAM1 191913Z 18014KT 38/15 A2992 RMK A01 T03820148  RH  025%=      5-min Rain = 0
KAM1 191914Z 18014KT 39/15 A2993 RMK A01 T03850146  RH  024%=      5-min Rain = 0
KAM1 191915Z 19014KT 39/15 A2993 RMK A01 T03850149  RH  025%=      5-min Rain = 0
KAM1 191916Z 19010KT 38/15 A2993 RMK A01 T03830152  RH  026%=      5-min Rain = 0
KAM1 191917Z 18012G20KT 38/15 A2992 RMK A01 T03830152  RH  026%=      5-min Rain = 0
KAM1 191918Z 19019KT 38/15 A2992 RMK A01 T03840150  RH  025%=      5-min Rain = 0
KAM1 191919Z 19014G19KT 38/15 A2993 RMK A01 T03840147  RH  025%=      5-min Rain = 0
KAM1 191920Z 18015KT 38/15 A2992 RMK A01 T03820147  RH  025%=      5-min Rain = 0
KAM1 191921Z 17013KT 38/15 A2992 RMK A01 T03790146  RH  025%=      5-min Rain = 0
KAM1 191922Z 18015KT 38/15 A2992 RMK A01 T03760149  RH  026%=      5-min Rain = 0
KAM1 191923Z 19013KT 38/15 A2992 RMK A01 T03780152  RH  026%=      5-min Rain = 0
KAM1 191924Z 20014KT 38/15 A2992 RMK A01 T03820153  RH  026%=      5-min Rain = 0
KAM1 191925Z 19015KT 38/15 A2992 RMK A01 T03830153  RH  026%=      5-min Rain = 0
KAM1 191926Z 18018KT 39/15 A2992 RMK A01 T03860147  RH  024%=      5-min Rain = 0
KAM1 191927Z 18016G21KT 38/14 A2992 RMK A01 T03830139  RH  024%=      5-min Rain = 0
KAM1 191928Z 18013KT 38/15 A2992 RMK A01 T03810145  RH  025%=      5-min Rain = 0
KAM1 191929Z 20015KT 38/15 A2992 RMK A01 T03840149  RH  025%=      5-min Rain = 0
KAM1 191930Z 19015KT 38/15 A2992 RMK A01 T03840148  RH  025%=      5-min Rain = 0
KAM1 191931Z 19014KT 38/15 A2992 RMK A01 T03820146  RH  025%=      5-min Rain = 0
KAM1 191932Z 19015KT 38/15 A2992 RMK A01 T03820145  RH  025%=      5-min Rain = 0
KAM1 191933Z 18012KT 38/14 A2992 RMK A01 T03820144  RH  024%=      5-min Rain = 0
KAM1 191934Z 18012KT 38/15 A2992 RMK A01 T03820147  RH  025%=      5-min Rain = 0
KAM1 191935Z 19015KT 39/15 A2992 RMK A01 T03850147  RH  025%=      5-min Rain = 0
KAM1 191936Z 20010KT 39/15 A2992 RMK A01 T03860148  RH  024%=      5-min Rain = 0
KAM1 191937Z 17012KT 39/15 A2992 RMK A01 T03860147  RH  024%=      5-min Rain = 0
KAM1 191938Z 18015KT 39/14 A2992 RMK A01 T03860143  RH  024%=      5-min Rain = 0
KAM1 191939Z 20016G24KT 38/15 A2992 RMK A01 T03830145  RH  024%=      5-min Rain = 0
KAM1 191940Z 21017KT 38/15 A2992 RMK A01 T03820146  RH  025%=      5-min Rain = 0
KAM1 191941Z 19012KT 38/14 A2992 RMK A01 T03810144  RH  025%=      5-min Rain = 0
KAM1 191942Z 18013KT 38/15 A2992 RMK A01 T03810147  RH  025%=      5-min Rain = 0
KAM1 191943Z 19011G16KT 38/15 A2992 RMK A01 T03840147  RH  025%=      5-min Rain = 0
KAM1 191944Z 19012KT 39/15 A2992 RMK A01 T03880149  RH  024%=      5-min Rain = 0
KAM1 191945Z 20013G18KT 39/15 A2992 RMK A01 T03930150  RH  024%=      5-min Rain = 0
KAM1 191946Z 20016KT 39/14 A2992 RMK A01 T03920141  RH  023%=      5-min Rain = 0
KAM1 191947Z 20015KT 39/14 A2992 RMK A01 T03890139  RH  023%=      5-min Rain = 0
KAM1 191948Z 20014G19KT 39/14 A2992 RMK A01 T03860142  RH  023%=      5-min Rain = 0
KAM1 191949Z 20017KT 39/14 A2992 RMK A01 T03870140  RH  023%=      5-min Rain = 0
KAM1 191950Z 20017KT 39/14 A2991 RMK A01 T03870141  RH  023%=      5-min Rain = 0
KAM1 191951Z 21015KT 39/14 A2991 RMK A01 T03850142  RH  024%=      5-min Rain = 0
KAM1 191952Z 20015KT 39/14 A2991 RMK A01 T03860139  RH  023%=      5-min Rain = 0
KAM1 191953Z 21010KT 39/14 A2991 RMK A01 T03860143  RH  024%=      5-min Rain = 0
KAM1 191954Z 20012KT 39/14 A2991 RMK A01 T03880141  RH  023%=      5-min Rain = 0
KAM1 191955Z 19014KT 39/14 A2991 RMK A01 T03870142  RH  023%=      5-min Rain = 0
KAM1 191956Z 20017KT 39/14 A2991 RMK A01 T03870142  RH  024%=      5-min Rain = 0
KAM1 191957Z 20016KT 39/15 A2991 RMK A01 T03870146  RH  024%=      5-min Rain = 0
KAM1 191958Z 19011KT 39/15 A2992 RMK A01 T03860147  RH  024%=      5-min Rain = 0
KAM1 191959Z 20009KT 39/15 A2991 RMK A01 T03850146  RH  024%=      5-min Rain = 0
KAM1 192000Z 17010KT 39/15 A2991 RMK A01 T03850146  RH  024%=      5-min Rain = 0
KAM1 192001Z 18014KT 39/15 A2991 RMK A01 T03870147  RH  024%=      5-min Rain = 0
KAM1 192002Z 18015KT 39/15 A2991 RMK A01 T03890145  RH  024%=      5-min Rain = 0
KAM1 192003Z 18012KT 39/14 A2991 RMK A01 T03900143  RH  023%=      5-min Rain = 0
KAM1 192004Z 17011KT 39/14 A2991 RMK A01 T03870142  RH  024%=      5-min Rain = 0
KAM1 192005Z 17010KT 38/14 A2991 RMK A01 T03840142  RH  024%=      5-min Rain = 0
KAM1 192006Z 18011KT 39/15 A2991 RMK A01 T03850149  RH  025%=      5-min Rain = 0
KAM1 192007Z 21014KT 39/15 A2991 RMK A01 T03910145  RH  023%=      5-min Rain = 0
KAM1 192008Z 21014KT 39/14 A2991 RMK A01 T03910139  RH  023%=      5-min Rain = 0
KAM1 192009Z 20015KT 39/14 A2991 RMK A01 T03880143  RH  023%=      5-min Rain = 0
KAM1 192010Z 21015KT 39/14 A2991 RMK A01 T03910142  RH  023%=      5-min Rain = 0
KAM1 192011Z 21013G18KT 39/14 A2991 RMK A01 T03900141  RH  023%=      5-min Rain = 0
KAM1 192012Z 19013KT 39/14 A2991 RMK A01 T03900144  RH  023%=      5-min Rain = 0
KAM1 192013Z 19018KT 39/14 A2991 RMK A01 T03900143  RH  023%=      5-min Rain = 0
KAM1 192014Z 19014KT 39/14 A2991 RMK A01 T03890138  RH  023%=      5-min Rain = 0
KAM1 192015Z 18014KT 39/14 A2991 RMK A01 T03880141  RH  023%=      5-min Rain = 0
KAM1 192016Z 20012G17KT 39/14 A2991 RMK A01 T03880141  RH  023%=      5-min Rain = 0
KAM1 192017Z 18012KT 39/14 A2991 RMK A01 T03880144  RH  024%=      5-min Rain = 0
KAM1 192018Z 16013KT 39/14 A2991 RMK A01 T03890143  RH  023%=      5-min Rain = 0
KAM1 192019Z 17015KT 39/14 A2991 RMK A01 T03900141  RH  023%=      5-min Rain = 0
KAM1 192020Z 18015KT 39/14 A299 RMK A01 T03880143  RH  023%=      5-min Rain = 0
KAM1 192021Z 20014KT 39/14 A2991 RMK A01 T03890144  RH  024%=      5-min Rain = 0
KAM1 192022Z 20014KT 39/15 A2991 RMK A01 T03910145  RH  024%=      5-min Rain = 0
KAM1 192023Z 19012KT 39/15 A2991 RMK A01 T03920148  RH  024%=      5-min Rain = 0
KAM1 192024Z 19015KT 40/15 A299 RMK A01 T03950147  RH  023%=      5-min Rain = 0
KAM1 192025Z 20020KT 39/15 A299 RMK A01 T03930145  RH  023%=      5-min Rain = 0
KAM1 192026Z 19017KT 39/15 A299 RMK A01 T03910145  RH  023%=      5-min Rain = 0
KAM1 192027Z 21017KT 39/14 A299 RMK A01 T03910137  RH  022%=      5-min Rain = 0
KAM1 192028Z 20017KT 39/14 A299 RMK A01 T03890137  RH  022%=      5-min Rain = 0
KAM1 192029Z 19016KT 39/14 A299 RMK A01 T03890135  RH  022%=      5-min Rain = 0
KAM1 192030Z 19018KT 39/14 A299 RMK A01 T03880135  RH  022%=      5-min Rain = 0
KAM1 192031Z 19013KT 39/13 A299 RMK A01 T03870134  RH  022%=      5-min Rain = 0
KAM1 192032Z 19015KT 39/14 A299 RMK A01 T03860135  RH  023%=      5-min Rain = 0
KAM1 192033Z 19012KT 39/14 A299 RMK A01 T03870137  RH  023%=      5-min Rain = 0
KAM1 192034Z 20011G18KT 39/14 A299 RMK A01 T03890141  RH  023%=      5-min Rain = 0
KAM1 192035Z 21012G17KT 39/14 A299 RMK A01 T03930136  RH  022%=      5-min Rain = 0
KAM1 192036Z 21009KT 39/14 A299 RMK A01 T03910136  RH  022%=      5-min Rain = 0
KAM1 192037Z 18015G22KT 39/14 A299 RMK A01 T03900140  RH  023%=      5-min Rain = 0
KAM1 192038Z 19019KT 39/14 A299 RMK A01 T03910142  RH  023%=      5-min Rain = 0
KAM1 192039Z 20016KT 39/14 A299 RMK A01 T03890137  RH  022%=      5-min Rain = 0
KAM1 192040Z 20011KT 39/14 A299 RMK A01 T03860139  RH  023%=      5-min Rain = 0
KAM1 192041Z 18015KT 39/14 A299 RMK A01 T03860142  RH  024%=      5-min Rain = 0
KAM1 192042Z 18015KT 39/14 A299 RMK A01 T03890140  RH  023%=      5-min Rain = 0
KAM1 192043Z 19012G17KT 39/14 A299 RMK A01 T03890139  RH  023%=      5-min Rain = 0
KAM1 192044Z 18015KT 39/14 A299 RMK A01 T03900142  RH  023%=      5-min Rain = 0
KAM1 192045Z 18014G21KT 39/14 A299 RMK A01 T03890142  RH  023%=      5-min Rain = 0
KAM1 192046Z 20019KT 39/14 A299 RMK A01 T03890141  RH  023%=      5-min Rain = 0
KAM1 192047Z 19017KT 39/14 A299 RMK A01 T03890140  RH  023%=      5-min Rain = 0
KAM1 192048Z 18016KT 39/14 A299 RMK A01 T03890138  RH  023%=      5-min Rain = 0
KAM1 192049Z 20016KT 39/14 A299 RMK A01 T03890139  RH  023%=      5-min Rain = 0
KAM1 192050Z 19014KT 39/14 A299 RMK A01 T03890141  RH  023%=      5-min Rain = 0
KAM1 192051Z 20017KT 39/14 A299 RMK A01 T03900141  RH  023%=      5-min Rain = 0
KAM1 192052Z 21015KT 39/14 A299 RMK A01 T03900141  RH  023%=      5-min Rain = 0
KAM1 192053Z 19017G24KT 39/15 A299 RMK A01 T03900145  RH  024%=      5-min Rain = 0
KAM1 192054Z 18013KT 39/14 A299 RMK A01 T03900143  RH  023%=      5-min Rain = 0
KAM1 192055Z 19016KT 39/14 A299 RMK A01 T03880143  RH  024%=      5-min Rain = 0
KAM1 192056Z 19014KT 39/14 A299 RMK A01 T03870141  RH  023%=      5-min Rain = 0
KAM1 192057Z 17012KT 39/14 A299 RMK A01 T03860144  RH  024%=      5-min Rain = 0
KAM1 192058Z 18015KT 39/14 A299 RMK A01 T03880143  RH  024%=      5-min Rain = 0
KAM1 192059Z 18017KT 39/14 A299 RMK A01 T03890143  RH  023%=      5-min Rain = 0
KAM1 192100Z 19013KT 39/14 A299 RMK A01 T03910142  RH  023%=      5-min Rain = 0
KAM1 192101Z 18014KT 39/14 A299 RMK A01 T03920139  RH  022%=      5-min Rain = 0
KAM1 192102Z 19014KT 39/14 A299 RMK A01 T03930135  RH  022%=      5-min Rain = 0
KAM1 192103Z 18010KT 39/14 A299 RMK A01 T03920136  RH  022%=      5-min Rain = 0
KAM1 192104Z 17011KT 39/14 A299 RMK A01 T03920140  RH  022%=      5-min Rain = 0
KAM1 192105Z 19011KT 39/14 A299 RMK A01 T03910140  RH  023%=      5-min Rain = 0
KAM1 192106Z 17010G15KT 39/14 A299 RMK A01 T03900143  RH  023%=      5-min Rain = 0
KAM1 192107Z 19014G22KT 39/14 A299 RMK A01 T03920143  RH  023%=      5-min Rain = 0
KAM1 192108Z 20017G22KT 39/14 A299 RMK A01 T03930138  RH  022%=      5-min Rain = 0
KAM1 192109Z 21011KT 39/14 A299 RMK A01 T03920141  RH  023%=      5-min Rain = 0
KAM1 192110Z 21012KT 39/14 A299 RMK A01 T03940138  RH  022%=      5-min Rain = 0
KAM1 192111Z 20010KT 39/14 A299 RMK A01 T03920139  RH  022%=      5-min Rain = 0
KAM1 192112Z 18012KT 39/14 A2989 RMK A01 T03910138  RH  023%=      5-min Rain = 0
KAM1 192113Z 19014G25KT 39/14 A2989 RMK A01 T03890140  RH  023%=      5-min Rain = 0
KAM1 192114Z 19019G25KT 39/14 A2989 RMK A01 T03890139  RH  023%=      5-min Rain = 0
KAM1 192115Z 19014G19KT 39/14 A299 RMK A01 T03890141  RH  023%=      5-min Rain = 0
KAM1 192116Z 19013G19KT 39/14 A2989 RMK A01 T03900142  RH  023%=      5-min Rain = 0
KAM1 192117Z 19016G21KT 39/14 A2989 RMK A01 T03920141  RH  023%=      5-min Rain = 0
KAM1 192118Z 17016KT 39/14 A2989 RMK A01 T03930139  RH  022%=      5-min Rain = 0
KAM1 192119Z 18015KT 39/14 A2989 RMK A01 T03920138  RH  022%=      5-min Rain = 0
KAM1 192120Z 19014KT 39/14 A2989 RMK A01 T03910139  RH  023%=      5-min Rain = 0
KAM1 192121Z 20013G19KT 40/14 A2989 RMK A01 T03950140  RH  022%=      5-min Rain = 0
KAM1 192122Z 21017KT 40/14 A2989 RMK A01 T03950136  RH  022%=      5-min Rain = 0
KAM1 192123Z 22014KT 39/13 A2989 RMK A01 T03930132  RH  021%=      5-min Rain = 0
KAM1 192124Z 22015KT 39/13 A2989 RMK A01 T03920133  RH  022%=      5-min Rain = 0
KAM1 192125Z 22012KT 39/14 A2989 RMK A01 T03920136  RH  022%=      5-min Rain = 0
KAM1 192126Z 21014KT 39/14 A2989 RMK A01 T03930140  RH  022%=      5-min Rain = 0
KAM1 192127Z 21012KT 40/14 A2989 RMK A01 T03950137  RH  022%=      5-min Rain = 0
KAM1 192128Z 22013KT 39/14 A2989 RMK A01 T03940137  RH  022%=      5-min Rain = 0
KAM1 192129Z 22009KT 39/14 A2989 RMK A01 T03930135  RH  022%=      5-min Rain = 0
KAM1 192130Z 20010KT 39/14 A2989 RMK A01 T03920140  RH  023%=      5-min Rain = 0
KAM1 192131Z 17009KT 40/14 A2989 RMK A01 T03960142  RH  022%=      5-min Rain = 0
KAM1 192132Z 16012KT 40/14 A2989 RMK A01 T03980140  RH  022%=      5-min Rain = 0
KAM1 192133Z 17015G22KT 40/14 A2989 RMK A01 T03970141  RH  022%=      5-min Rain = 0
KAM1 192134Z 17020KT 40/14 A2989 RMK A01 T03970136  RH  021%=      5-min Rain = 0
KAM1 192135Z 17018KT 39/13 A2989 RMK A01 T03930134  RH  022%=      5-min Rain = 0
KAM1 192136Z 17012KT 39/14 A2989 RMK A01 T03900135  RH  022%=      5-min Rain = 0
KAM1 192137Z 16011KT 39/14 A2989 RMK A01 T03890135  RH  022%=      5-min Rain = 0
KAM1 192138Z 17009KT 39/14 A2989 RMK A01 T03890135  RH  022%=      5-min Rain = 0
KAM1 192139Z 18010KT 39/13 A2989 RMK A01 T03900134  RH  022%=      5-min Rain = 0
KAM1 192140Z 16010G17KT 39/14 A2989 RMK A01 T03910139  RH  023%=      5-min Rain = 0
KAM1 192141Z 17016G22KT 40/14 A2988 RMK A01 T03950138  RH  022%=      5-min Rain = 0
KAM1 192142Z 19017KT 40/13 A2988 RMK A01 T03970134  RH  021%=      5-min Rain = 0
KAM1 192143Z 18016KT 40/13 A2988 RMK A01 T03950132  RH  021%=      5-min Rain = 0
KAM1 192144Z 17015KT 40/14 A2988 RMK A01 T03950135  RH  022%=      5-min Rain = 0
KAM1 192145Z 18016KT 40/13 A2989 RMK A01 T03950132  RH  021%=      5-min Rain = 0
KAM1 192146Z 18013KT 39/13 A2988 RMK A01 T03910131  RH  021%=      5-min Rain = 0
KAM1 192147Z 17013KT 39/13 A2988 RMK A01 T03900133  RH  022%=      5-min Rain = 0
KAM1 192148Z 17010KT 39/13 A2988 RMK A01 T03860133  RH  022%=      5-min Rain = 0
KAM1 192149Z 19011KT 38/13 A2988 RMK A01 T03810133  RH  023%=      5-min Rain = 0
KAM1 192150Z 18016KT 38/13 A2988 RMK A01 T03780132  RH  023%=      5-min Rain = 0
KAM1 192151Z 19013KT 38/13 A2988 RMK A01 T03750132  RH  024%=      5-min Rain = 0
KAM1 192152Z 18012KT 38/13 A2988 RMK A01 T03770134  RH  024%=      5-min Rain = 0
KAM1 192153Z 19017KT 38/14 A2988 RMK A01 T03820136  RH  023%=      5-min Rain = 0
KAM1 192154Z 19016G21KT 39/14 A2988 RMK A01 T03870137  RH  023%=      5-min Rain = 0
KAM1 192155Z 18016G22KT 39/14 A2988 RMK A01 T03890136  RH  022%=      5-min Rain = 0
KAM1 192156Z 18018KT 39/14 A2988 RMK A01 T03900135  RH  022%=      5-min Rain = 0
KAM1 192157Z 16013KT 39/13 A2988 RMK A01 T03890133  RH  022%=      5-min Rain = 0
KAM1 192158Z 17013KT 39/13 A2988 RMK A01 T03890134  RH  022%=      5-min Rain = 0
KAM1 192159Z 17015G20KT 39/13 A2988 RMK A01 T03900133  RH  022%=      5-min Rain = 0
KAM1 192200Z 17015KT 39/13 A2988 RMK A01 T03900131  RH  022%=      5-min Rain = 0
KAM1 192201Z 17011KT 39/13 A2988 RMK A01 T03900130  RH  021%=      5-min Rain = 0
KAM1 192202Z 19012G17KT 39/13 A2988 RMK A01 T03920132  RH  021%=      5-min Rain = 0
KAM1 192203Z 18015KT 40/13 A2988 RMK A01 T03950130  RH  021%=      5-min Rain = 0
KAM1 192204Z 18015KT 40/13 A2988 RMK A01 T03960129  RH  021%=      5-min Rain = 0
KAM1 192205Z 17014KT 39/13 A2988 RMK A01 T03930131  RH  021%=      5-min Rain = 0
KAM1 192206Z 18015KT 39/14 A2988 RMK A01 T03920135  RH  022%=      5-min Rain = 0
KAM1 192207Z 18015KT 39/13 A2988 RMK A01 T03920133  RH  022%=      5-min Rain = 0
KAM1 192208Z 18015KT 39/14 A2988 RMK A01 T03910135  RH  022%=      5-min Rain = 0
KAM1 192209Z 18015KT 39/14 A2988 RMK A01 T03930135  RH  022%=      5-min Rain = 0
KAM1 192210Z 18013KT 39/14 A2988 RMK A01 T03930136  RH  022%=      5-min Rain = 0
KAM1 192211Z 17015KT 40/14 A2988 RMK A01 T03950136  RH  022%=      5-min Rain = 0
KAM1 192212Z 17013KT 39/13 A2988 RMK A01 T03940130  RH  021%=      5-min Rain = 0
KAM1 192213Z 17014KT 39/13 A2988 RMK A01 T03930132  RH  021%=      5-min Rain = 0
KAM1 192214Z 18015KT 39/13 A2988 RMK A01 T03930134  RH  022%=      5-min Rain = 0
KAM1 192215Z 18013G19KT 40/14 A2988 RMK A01 T03960136  RH  022%=      5-min Rain = 0
KAM1 192216Z 18017KT 40/13 A2988 RMK A01 T03980134  RH  021%=      5-min Rain = 0
KAM1 192217Z 18014KT 40/13 A2988 RMK A01 T03950133  RH  021%=      5-min Rain = 0
KAM1 192218Z 18014G19KT 39/13 A2988 RMK A01 T03940134  RH  022%=      5-min Rain = 0
KAM1 192219Z 18015KT 39/13 A2988 RMK A01 T03940133  RH  021%=      5-min Rain = 0
KAM1 192220Z 18014KT 39/13 A2988 RMK A01 T03920131  RH  021%=      5-min Rain = 0
KAM1 192221Z 18014KT 39/13 A2988 RMK A01 T03870129  RH  022%=      5-min Rain = 0
KAM1 192222Z 18013KT 38/13 A2988 RMK A01 T03840129  RH  022%=      5-min Rain = 0
KAM1 192223Z 19013KT 38/13 A2988 RMK A01 T03840131  RH  022%=      5-min Rain = 0
KAM1 192224Z 19013KT 39/13 A2988 RMK A01 T03850130  RH  022%=      5-min Rain = 0
KAM1 192225Z 19012KT 38/13 A2988 RMK A01 T03840130  RH  022%=      5-min Rain = 0
KAM1 192226Z 18013KT 38/13 A2988 RMK A01 T03840134  RH  023%=      5-min Rain = 0
KAM1 192227Z 17015KT 39/13 A2988 RMK A01 T03880133  RH  022%=      5-min Rain = 0
KAM1 192228Z 17013KT 39/13 A2988 RMK A01 T03900130  RH  021%=      5-min Rain = 0
KAM1 192229Z 19011G16KT 39/13 A2988 RMK A01 T03900131  RH  021%=      5-min Rain = 0
KAM1 192230Z 19012KT 39/13 A2988 RMK A01 T03910133  RH  022%=      5-min Rain = 0
KAM1 192231Z 19013KT 39/13 A2988 RMK A01 T03910131  RH  021%=      5-min Rain = 0
KAM1 192232Z 18012KT 39/13 A2988 RMK A01 T03870131  RH  022%=      5-min Rain = 0
KAM1 192233Z 19011KT 38/13 A2988 RMK A01 T03810129  RH  022%=      5-min Rain = 0
KAM1 192234Z 17010KT 38/13 A2988 RMK A01 T03780130  RH  023%=      5-min Rain = 0
KAM1 192235Z 17011KT 38/13 A2988 RMK A01 T03750130  RH  023%=      5-min Rain = 0
KAM1 192236Z 20012KT 37/13 A2988 RMK A01 T03740130  RH  023%=      5-min Rain = 0
KAM1 192237Z 20011KT 37/13 A2988 RMK A01 T03720129  RH  023%=      5-min Rain = 0
KAM1 192238Z 19011KT 37/13 A2988 RMK A01 T03720129  RH  023%=      5-min Rain = 0
KAM1 192239Z 19016G21KT 38/13 A2988 RMK A01 T03760131  RH  023%=      5-min Rain = 0
KAM1 192240Z 18017KT 38/13 A2987 RMK A01 T03820128  RH  022%=      5-min Rain = 0
KAM1 192241Z 17013G18KT 38/13 A2987 RMK A01 T03830130  RH  022%=      5-min Rain = 0
KAM1 192242Z 17014KT 39/13 A2988 RMK A01 T03870133  RH  022%=      5-min Rain = 0
KAM1 192243Z 17015KT 39/13 A2988 RMK A01 T03890131  RH  022%=      5-min Rain = 0
KAM1 192244Z 17015KT 39/13 A2987 RMK A01 T03900130  RH  021%=      5-min Rain = 0
KAM1 192245Z 20015KT 39/13 A2987 RMK A01 T03890131  RH  022%=      5-min Rain = 0
KAM1 192246Z 18013G18KT 39/13 A2988 RMK A01 T03860132  RH  022%=      5-min Rain = 0
KAM1 192247Z 18012KT 39/13 A2988 RMK A01 T03860131  RH  022%=      5-min Rain = 0
KAM1 192248Z 18013KT 39/13 A2988 RMK A01 T03870131  RH  022%=      5-min Rain = 0
KAM1 192249Z 16013G18KT 39/13 A2988 RMK A01 T03870133  RH  022%=      5-min Rain = 0
KAM1 192250Z 17014KT 38/13 A2988 RMK A01 T03830132  RH  023%=      5-min Rain = 0
KAM1 192251Z 16015KT 38/13 A2988 RMK A01 T03790133  RH  023%=      5-min Rain = 0
KAM1 192252Z 15016G22KT 38/13 A2987 RMK A01 T03750132  RH  023%=      5-min Rain = 0
KAM1 192253Z 15016KT 37/13 A2987 RMK A01 T03730132  RH  024%=      5-min Rain = 0
KAM1 192254Z 16018KT 37/13 A2988 RMK A01 T03710131  RH  024%=      5-min Rain = 0
KAM1 192255Z 17015KT 37/13 A2988 RMK A01 T03700130  RH  024%=      5-min Rain = 0
KAM1 192256Z 17016KT 37/13 A2988 RMK A01 T03690127  RH  023%=      5-min Rain = 0
KAM1 192257Z 17016KT 37/13 A2988 RMK A01 T03690126  RH  023%=      5-min Rain = 0
KAM1 192258Z 18011KT 37/13 A2988 RMK A01 T03690127  RH  023%=      5-min Rain = 0
KAM1 192259Z 18013KT 37/13 A2988 RMK A01 T03710128  RH  023%=      5-min Rain = 0
KAM1 192300Z 17014KT 37/13 A2988 RMK A01 T03740128  RH  023%=      5-min Rain = 0
KAM1 192301Z 18011KT 38/13 A2987 RMK A01 T03790129  RH  023%=      5-min Rain = 0
KAM1 192302Z 18012G17KT 38/13 A2988 RMK A01 T03820132  RH  023%=      5-min Rain = 0
KAM1 192303Z 18015KT 39/13 A2987 RMK A01 T03860132  RH  022%=      5-min Rain = 0
KAM1 192304Z 17010KT 39/13 A2987 RMK A01 T03860134  RH  022%=      5-min Rain = 0
KAM1 192305Z 16015G20KT 39/14 A2987 RMK A01 T03870137  RH  023%=      5-min Rain = 0
KAM1 192306Z 17017G23KT 39/14 A2987 RMK A01 T03870137  RH  023%=      5-min Rain = 0
KAM1 192307Z 17017KT 38/14 A2987 RMK A01 T03820136  RH  023%=      5-min Rain = 0
KAM1 192308Z 18015KT 38/14 A2988 RMK A01 T03790136  RH  024%=      5-min Rain = 0
KAM1 192309Z 17015KT 38/14 A2988 RMK A01 T03790136  RH  024%=      5-min Rain = 0
KAM1 192310Z 17013KT 38/14 A2988 RMK A01 T03800136  RH  024%=      5-min Rain = 0
KAM1 192311Z 17010KT 38/14 A2988 RMK A01 T03800138  RH  024%=      5-min Rain = 0
KAM1 192312Z 16012KT 38/14 A2987 RMK A01 T03800139  RH  024%=      5-min Rain = 0
KAM1 192313Z 17014KT 38/13 A2987 RMK A01 T03800134  RH  023%=      5-min Rain = 0
KAM1 192314Z 17016KT 38/13 A2987 RMK A01 T03810134  RH  023%=      5-min Rain = 0
KAM1 192315Z 17015KT 38/13 A2987 RMK A01 T03820134  RH  023%=      5-min Rain = 0
KAM1 192316Z 16014KT 38/14 A2987 RMK A01 T03830135  RH  023%=      5-min Rain = 0
KAM1 192317Z 16014KT 38/14 A2987 RMK A01 T03840138  RH  023%=      5-min Rain = 0
KAM1 192318Z 17013KT 38/14 A2987 RMK A01 T03840137  RH  023%=      5-min Rain = 0
KAM1 192319Z 18019KT 39/13 A2987 RMK A01 T03850133  RH  022%=      5-min Rain = 0
KAM1 192320Z 19015KT 38/13 A2987 RMK A01 T03830128  RH  022%=      5-min Rain = 0
KAM1 192321Z 19016KT 38/13 A2987 RMK A01 T03810128  RH  022%=      5-min Rain = 0
KAM1 192322Z 19016KT 38/13 A2987 RMK A01 T03800125  RH  022%=      5-min Rain = 0
KAM1 192323Z 18013KT 38/13 A2987 RMK A01 T03780125  RH  022%=      5-min Rain = 0
KAM1 192324Z 19012KT 38/13 A2987 RMK A01 T03780129  RH  023%=      5-min Rain = 0
KAM1 192325Z 18014KT 38/13 A2987 RMK A01 T03790131  RH  023%=      5-min Rain = 0
KAM1 192326Z 18017KT 38/13 A2987 RMK A01 T03800131  RH  023%=      5-min Rain = 0
KAM1 192327Z 18012KT 38/13 A2987 RMK A01 T03780130  RH  023%=      5-min Rain = 0
KAM1 192328Z 17012G19KT 38/13 A2987 RMK A01 T03750130  RH  023%=      5-min Rain = 0
KAM1 192329Z 18017KT 37/13 A2987 RMK A01 T03730129  RH  023%=      5-min Rain = 0
KAM1 192330Z 18014G19KT 37/13 A2987 RMK A01 T03730129  RH  023%=      5-min Rain = 0
KAM1 192331Z 17015G20KT 37/13 A2987 RMK A01 T03720130  RH  023%=      5-min Rain = 0
KAM1 192332Z 17015G20KT 37/13 A2987 RMK A01 T03730127  RH  023%=      5-min Rain = 0
KAM1 192333Z 17013KT 37/13 A2987 RMK A01 T03730128  RH  023%=      5-min Rain = 0
KAM1 192334Z 17012KT 37/13 A2987 RMK A01 T03730128  RH  023%=      5-min Rain = 0
KAM1 192335Z 17013KT 37/13 A2987 RMK A01 T03720128  RH  023%=      5-min Rain = 0
KAM1 192336Z 17014KT 37/13 A2987 RMK A01 T03710127  RH  023%=      5-min Rain = 0
KAM1 192337Z 17013KT 37/13 A2987 RMK A01 T03690126  RH  023%=      5-min Rain = 0
KAM1 192338Z 17015KT 37/13 A2987 RMK A01 T03670127  RH  024%=      5-min Rain = 0
KAM1 192339Z 18013KT 37/13 A2987 RMK A01 T03660129  RH  024%=      5-min Rain = 0
KAM1 192340Z 19012KT 37/13 A2987 RMK A01 T03650129  RH  024%=      5-min Rain = 0
KAM1 192341Z 19015KT 36/13 A2987 RMK A01 T03630128  RH  024%=      5-min Rain = 0
KAM1 192342Z 18011KT 36/13 A2987 RMK A01 T03630129  RH  025%=      5-min Rain = 0
KAM1 192343Z 18010KT 36/13 A2987 RMK A01 T03620130  RH  025%=      5-min Rain = 0
KAM1 192344Z 18012KT 36/13 A2987 RMK A01 T03610131  RH  025%=      5-min Rain = 0
KAM1 192345Z 18010KT 36/13 A2987 RMK A01 T03600131  RH  025%=      5-min Rain = 0
KAM1 192346Z 18012KT 36/13 A2987 RMK A01 T03590130  RH  025%=      5-min Rain = 0
KAM1 192347Z 18014KT 36/13 A2987 RMK A01 T03590129  RH  025%=      5-min Rain = 0
KAM1 192348Z 18016KT 36/13 A2987 RMK A01 T03590129  RH  025%=      5-min Rain = 0
KAM1 192349Z 18016KT 36/13 A2987 RMK A01 T03590129  RH  025%=      5-min Rain = 0
KAM1 192350Z 18015KT 36/13 A2987 RMK A01 T03590127  RH  025%=      5-min Rain = 0
KAM1 192351Z 19014KT 36/13 A2987 RMK A01 T03600126  RH  025%=      5-min Rain = 0
KAM1 192352Z 18009KT 36/13 A2987 RMK A01 T03590128  RH  025%=      5-min Rain = 0
KAM1 192353Z 18012KT 36/13 A2987 RMK A01 T03590129  RH  025%=      5-min Rain = 0
KAM1 192354Z 18011KT 36/13 A2987 RMK A01 T03580129  RH  025%=      5-min Rain = 0
KAM1 192355Z 18009KT 36/13 A2987 RMK A01 T03570129  RH  025%=      5-min Rain = 0
KAM1 192356Z 19009KT 36/13 A2987 RMK A01 T03560130  RH  026%=      5-min Rain = 0
KAM1 192357Z 18011KT 36/13 A2987 RMK A01 T03550130  RH  026%=      5-min Rain = 0
KAM1 192358Z 18011KT 36/13 A2987 RMK A01 T03550128  RH  026%=      5-min Rain = 0
KAM1 192359Z 18013KT 35/13 A2987 RMK A01 T03540127  RH  026%=      5-min Rain = 0
KAM1 200000Z 18012KT 35/13 A2987 RMK A01 T03540127  RH  025%=      5-min Rain = 0
KAM1 200001Z 18013KT 35/13 A2988 RMK A01 T03540128  RH  026%=      5-min Rain = 0
KAM1 200002Z 17011KT 35/13 A2988 RMK A01 T03540128  RH  026%=      5-min Rain = 0
KAM1 200003Z 18013G18KT 35/13 A2988 RMK A01 T03540128  RH  026%=      5-min Rain = 0
KAM1 200004Z 18015KT 35/13 A2988 RMK A01 T03540128  RH  026%=      5-min Rain = 0
KAM1 200005Z 18013KT 35/13 A2988 RMK A01 T03540128  RH  026%=      5-min Rain = 0
KAM1 200006Z 18009KT 35/13 A2988 RMK A01 T03540129  RH  026%=      5-min Rain = 0
KAM1 200007Z 18010KT 35/13 A2988 RMK A01 T03540130  RH  026%=      5-min Rain = 0
KAM1 200008Z 19013KT 35/13 A2988 RMK A01 T03530130  RH  026%=      5-min Rain = 0
KAM1 200009Z 18014KT 35/13 A2988 RMK A01 T03530128  RH  026%=      5-min Rain = 0
KAM1 200010Z 19014G19KT 35/13 A2988 RMK A01 T03530127  RH  026%=      5-min Rain = 0
KAM1 200011Z 19015KT 35/13 A2988 RMK A01 T03530128  RH  026%=      5-min Rain = 0
KAM1 200012Z 19011KT 35/13 A2988 RMK A01 T03540128  RH  026%=      5-min Rain = 0
KAM1 200013Z 18013KT 35/13 A2988 RMK A01 T03540128  RH  026%=      5-min Rain = 0
KAM1 200014Z 18013KT 35/13 A2988 RMK A01 T03530128  RH  026%=      5-min Rain = 0
KAM1 200015Z 17012KT 35/13 A2988 RMK A01 T03530128  RH  026%=      5-min Rain = 0
KAM1 200016Z 18013KT 35/13 A2988 RMK A01 T03530129  RH  026%=      5-min Rain = 0
KAM1 200017Z 18014KT 35/13 A2988 RMK A01 T03530129  RH  026%=      5-min Rain = 0
KAM1 200018Z 18013KT 35/13 A2988 RMK A01 T03530128  RH  026%=      5-min Rain = 0
KAM1 200019Z 17014KT 35/13 A2988 RMK A01 T03530128  RH  026%=      5-min Rain = 0
KAM1 200020Z 17014KT 35/13 A2988 RMK A01 T03530128  RH  026%=      5-min Rain = 0
KAM1 200021Z 18014KT 35/13 A2988 RMK A01 T03530128  RH  026%=      5-min Rain = 0
KAM1 200022Z 18012G17KT 35/13 A2988 RMK A01 T03530128  RH  026%=      5-min Rain = 0
KAM1 200023Z 18013KT 35/13 A2988 RMK A01 T03530128  RH  026%=      5-min Rain = 0
KAM1 200024Z 18013KT 35/13 A2988 RMK A01 T03530128  RH  026%=      5-min Rain = 0
KAM1 200025Z 19012KT 35/13 A2988 RMK A01 T03530128  RH  026%=      5-min Rain = 0
KAM1 200026Z 18013KT 35/13 A2988 RMK A01 T03520128  RH  026%=      5-min Rain = 0
KAM1 200027Z 18013KT 35/13 A2988 RMK A01 T03520128  RH  026%=      5-min Rain = 0
KAM1 200028Z 18014KT 35/13 A2988 RMK A01 T03510127  RH  026%=      5-min Rain = 0
KAM1 200029Z 18015KT 35/13 A2988 RMK A01 T03510127  RH  026%=      5-min Rain = 0
KAM1 200030Z 18015KT 35/13 A2988 RMK A01 T03510126  RH  026%=      5-min Rain = 0
KAM1 200031Z 18013KT 35/13 A2988 RMK A01 T03520126  RH  026%=      5-min Rain = 0
KAM1 200032Z 18013KT 35/13 A2988 RMK A01 T03510127  RH  026%=      5-min Rain = 0
KAM1 200033Z 18013KT 35/13 A2988 RMK A01 T03510126  RH  026%=      5-min Rain = 0
KAM1 200034Z 18014KT 35/13 A2988 RMK A01 T03500126  RH  026%=      5-min Rain = 0
KAM1 200035Z 18014KT 35/13 A2988 RMK A01 T03500126  RH  026%=      5-min Rain = 0
KAM1 200036Z 18014KT 35/13 A2988 RMK A01 T03500126  RH  026%=      5-min Rain = 0
KAM1 200037Z 18014G19KT 35/13 A2988 RMK A01 T03490126  RH  026%=      5-min Rain = 0
KAM1 200038Z 18014KT 35/13 A2989 RMK A01 T03490125  RH  026%=      5-min Rain = 0
KAM1 200039Z 18010KT 35/13 A2989 RMK A01 T03480126  RH  026%=      5-min Rain = 0
KAM1 200040Z 18013KT 35/13 A2989 RMK A01 T03470126  RH  026%=      5-min Rain = 0
KAM1 200041Z 18011KT 35/13 A2989 RMK A01 T03470126  RH  026%=      5-min Rain = 0
KAM1 200042Z 18012KT 35/13 A2989 RMK A01 T03470126  RH  026%=      5-min Rain = 0
KAM1 200043Z 18016KT 35/12 A2989 RMK A01 T03460124  RH  026%=      5-min Rain = 0
KAM1 200044Z 18012KT 35/12 A2989 RMK A01 T03470124  RH  026%=      5-min Rain = 0
KAM1 200045Z 18012KT 35/13 A2989 RMK A01 T03470125  RH  026%=      5-min Rain = 0
KAM1 200046Z 18013KT 35/12 A2989 RMK A01 T03470124  RH  026%=      5-min Rain = 0
KAM1 200047Z 18013KT 35/12 A2989 RMK A01 T03470123  RH  026%=      5-min Rain = 0
KAM1 200048Z 18011KT 35/12 A2989 RMK A01 T03470124  RH  026%=      5-min Rain = 0
KAM1 200049Z 18011KT 35/13 A2989 RMK A01 T03470125  RH  026%=      5-min Rain = 0
KAM1 200050Z 18011KT 35/12 A2989 RMK A01 T03460124  RH  026%=      5-min Rain = 0
KAM1 200051Z 18010KT 35/13 A2989 RMK A01 T03450125  RH  026%=      5-min Rain = 0
KAM1 200052Z 18012KT 35/13 A2989 RMK A01 T03450125  RH  027%=      5-min Rain = 0
KAM1 200053Z 19011KT 34/13 A2989 RMK A01 T03440125  RH  027%=      5-min Rain = 0
KAM1 200054Z 18011KT 34/13 A299 RMK A01 T03440125  RH  027%=      5-min Rain = 0
KAM1 200055Z 19011KT 34/13 A299 RMK A01 T03430125  RH  027%=      5-min Rain = 0
KAM1 200056Z 18010KT 34/12 A299 RMK A01 T03430124  RH  027%=      5-min Rain = 0
KAM1 200057Z 18011KT 34/12 A299 RMK A01 T03430124  RH  027%=      5-min Rain = 0
KAM1 200058Z 18012KT 34/12 A299 RMK A01 T03420124  RH  027%=      5-min Rain = 0
KAM1 200059Z 18011KT 34/12 A299 RMK A01 T03430124  RH  027%=      5-min Rain = 0
KAM1 200100Z 18013KT 34/12 A2989 RMK A01 T03420124  RH  027%=      5-min Rain = 0
KAM1 200101Z 18011KT 34/12 A299 RMK A01 T03420123  RH  026%=      5-min Rain = 0
KAM1 200102Z 19011KT 34/12 A299 RMK A01 T03430122  RH  026%=      5-min Rain = 0
KAM1 200103Z 18012KT 34/12 A299 RMK A01 T03430123  RH  026%=      5-min Rain = 0
KAM1 200104Z 18011G16KT 34/12 A299 RMK A01 T03420122  RH  026%=      5-min Rain = 0
KAM1 200105Z 18013KT 34/12 A299 RMK A01 T03420122  RH  026%=      5-min Rain = 0
KAM1 200106Z 18012KT 34/12 A299 RMK A01 T03420121  RH  026%=      5-min Rain = 0
KAM1 200107Z 18010KT 34/12 A299 RMK A01 T03420121  RH  026%=      5-min Rain = 0
KAM1 200108Z 18010KT 34/12 A299 RMK A01 T03420122  RH  026%=      5-min Rain = 0
KAM1 200109Z 18010KT 34/12 A299 RMK A01 T03410122  RH  026%=      5-min Rain = 0
KAM1 200110Z 19009KT 34/12 A299 RMK A01 T03400122  RH  027%=      5-min Rain = 0
KAM1 200111Z 18010KT 34/12 A299 RMK A01 T03400122  RH  027%=      5-min Rain = 0
KAM1 200112Z 18010KT 34/12 A299 RMK A01 T03390122  RH  027%=      5-min Rain = 0
KAM1 200113Z 18008KT 34/12 A299 RMK A01 T03380121  RH  027%=      5-min Rain = 0
KAM1 200114Z 18009KT 34/12 A299 RMK A01 T03370122  RH  027%=      5-min Rain = 0
KAM1 200115Z 18008KT 34/12 A299 RMK A01 T03360122  RH  027%=      5-min Rain = 0
KAM1 200116Z 18008KT 34/12 A299 RMK A01 T03350122  RH  027%=      5-min Rain = 0
KAM1 200117Z 18009KT 34/12 A299 RMK A01 T03350121  RH  027%=      5-min Rain = 0
KAM1 200118Z 18011KT 33/12 A299 RMK A01 T03340120  RH  027%=      5-min Rain = 0
KAM1 200119Z 18009KT 34/12 A299 RMK A01 T03350121  RH  027%=      5-min Rain = 0
KAM1 200120Z 18010KT 34/12 A299 RMK A01 T03350121  RH  027%=      5-min Rain = 0
KAM1 200121Z 18011KT 34/12 A299 RMK A01 T03350121  RH  027%=      5-min Rain = 0
KAM1 200122Z 18011KT 33/12 A299 RMK A01 T03340119  RH  027%=      5-min Rain = 0
KAM1 200123Z 18009KT 34/12 A299 RMK A01 T03350119  RH  027%=      5-min Rain = 0
KAM1 200124Z 18010KT 34/12 A299 RMK A01 T03350119  RH  027%=      5-min Rain = 0
KAM1 200125Z 18010KT 34/12 A299 RMK A01 T03350119  RH  027%=      5-min Rain = 0
KAM1 200126Z 18010KT 34/12 A299 RMK A01 T03350119  RH  027%=      5-min Rain = 0
KAM1 200127Z 18011KT 33/12 A299 RMK A01 T03340119  RH  027%=      5-min Rain = 0
KAM1 200128Z 18010KT 33/12 A299 RMK A01 T03340118  RH  027%=      5-min Rain = 0
KAM1 200129Z 18010KT 33/12 A299 RMK A01 T03340118  RH  027%=      5-min Rain = 0
KAM1 200130Z 18009KT 33/12 A299 RMK A01 T03340118  RH  027%=      5-min Rain = 0
KAM1 200131Z 18009KT 33/12 A299 RMK A01 T03330119  RH  027%=      5-min Rain = 0
KAM1 200132Z 18009KT 33/12 A299 RMK A01 T03320118  RH  027%=      5-min Rain = 0
KAM1 200133Z 18009KT 33/12 A299 RMK A01 T03310119  RH  027%=      5-min Rain = 0
KAM1 200134Z 19009KT 33/12 A299 RMK A01 T03300118  RH  027%=      5-min Rain = 0
KAM1 200135Z 19009KT 33/12 A299 RMK A01 T03300119  RH  028%=      5-min Rain = 0
KAM1 200136Z 19008KT 33/12 A299 RMK A01 T03290118  RH  028%=      5-min Rain = 0
KAM1 200137Z 20008KT 33/12 A299 RMK A01 T03280118  RH  028%=      5-min Rain = 0
KAM1 200138Z 20008KT 33/12 A299 RMK A01 T03280118  RH  028%=      5-min Rain = 0
KAM1 200139Z 20008KT 33/12 A299 RMK A01 T03280119  RH  028%=      5-min Rain = 0
KAM1 200140Z 20007KT 33/12 A299 RMK A01 T03270119  RH  028%=      5-min Rain = 0
KAM1 200141Z 21007KT 33/12 A299 RMK A01 T03260119  RH  028%=      5-min Rain = 0
KAM1 200142Z 21007KT 32/12 A299 RMK A01 T03240119  RH  029%=      5-min Rain = 0
KAM1 200143Z 21006KT 32/12 A299 RMK A01 T03230120  RH  029%=      5-min Rain = 0
KAM1 200144Z 20006KT 32/12 A299 RMK A01 T03220120  RH  029%=      5-min Rain = 0
KAM1 200145Z 20006KT 32/12 A299 RMK A01 T03200120  RH  029%=      5-min Rain = 0
KAM1 200146Z 20006KT 32/12 A299 RMK A01 T03190120  RH  030%=      5-min Rain = 0
KAM1 200147Z 20006KT 32/12 A299 RMK A01 T03180120  RH  030%=      5-min Rain = 0
KAM1 200148Z 20007KT 32/12 A299 RMK A01 T03170121  RH  030%=      5-min Rain = 0
KAM1 200149Z 20007KT 32/12 A299 RMK A01 T03170121  RH  030%=      5-min Rain = 0
KAM1 200150Z 20007KT 32/12 A299 RMK A01 T03160121  RH  030%=      5-min Rain = 0
KAM1 200151Z 19007KT 32/12 A299 RMK A01 T03150121  RH  030%=      5-min Rain = 0
KAM1 200152Z 19007KT 31/12 A299 RMK A01 T03140121  RH  031%=      5-min Rain = 0
KAM1 200153Z 19008KT 31/12 A299 RMK A01 T03130121  RH  031%=      5-min Rain = 0
KAM1 200154Z 19007KT 31/12 A299 RMK A01 T03130120  RH  031%=      5-min Rain = 0
KAM1 200155Z 19007KT 31/12 A299 RMK A01 T03130121  RH  031%=      5-min Rain = 0
KAM1 200156Z 19008KT 31/12 A299 RMK A01 T03120121  RH  031%=      5-min Rain = 0
KAM1 200157Z 19009KT 31/12 A299 RMK A01 T03110121  RH  031%=      5-min Rain = 0
KAM1 200158Z 19009KT 31/12 A299 RMK A01 T03100121  RH  031%=      5-min Rain = 0
KAM1 200159Z 19008KT 31/12 A299 RMK A01 T03100121  RH  031%=      5-min Rain = 0
KAM1 200200Z 19009KT 31/12 A299 RMK A01 T03090121  RH  032%=      5-min Rain = 0
KAM1 200201Z 19008KT 31/12 A299 RMK A01 T03090121  RH  032%=      5-min Rain = 0
KAM1 200202Z 19008KT 31/12 A299 RMK A01 T03090121  RH  032%=      5-min Rain = 0
KAM1 200203Z 19008KT 31/12 A299 RMK A01 T03090121  RH  032%=      5-min Rain = 0
KAM1 200204Z 19009KT 31/12 A299 RMK A01 T03090122  RH  032%=      5-min Rain = 0
KAM1 200205Z 19008KT 31/12 A299 RMK A01 T03090122  RH  032%=      5-min Rain = 0
KAM1 200206Z 19008KT 31/12 A299 RMK A01 T03090122  RH  032%=      5-min Rain = 0
KAM1 200207Z 20008KT 31/12 A299 RMK A01 T03090122  RH  032%=      5-min Rain = 0
KAM1 200208Z 19008KT 31/12 A299 RMK A01 T03090122  RH  032%=      5-min Rain = 0
KAM1 200209Z 19008KT 31/12 A299 RMK A01 T03080122  RH  032%=      5-min Rain = 0
KAM1 200210Z 20008KT 31/12 A299 RMK A01 T03070123  RH  032%=      5-min Rain = 0
KAM1 200211Z 20008KT 31/12 A299 RMK A01 T03070123  RH  032%=      5-min Rain = 0
KAM1 200212Z 20009KT 31/12 A299 RMK A01 T03060123  RH  032%=      5-min Rain = 0
KAM1 200213Z 20009KT 31/12 A299 RMK A01 T03060123  RH  033%=      5-min Rain = 0
KAM1 200214Z 20008KT 31/12 A299 RMK A01 T03050123  RH  033%=      5-min Rain = 0
KAM1 200215Z 19008KT 31/12 A299 RMK A01 T03050123  RH  033%=      5-min Rain = 0
KAM1 200216Z 19007KT 30/12 A299 RMK A01 T03040123  RH  033%=      5-min Rain = 0
KAM1 200217Z 19008KT 30/12 A299 RMK A01 T03030124  RH  033%=      5-min Rain = 0
KAM1 200218Z 19008KT 30/12 A299 RMK A01 T03010123  RH  033%=      5-min Rain = 0
KAM1 200219Z 19009KT 30/12 A299 RMK A01 T03010123  RH  034%=      5-min Rain = 0
KAM1 200220Z 19009KT 30/12 A299 RMK A01 T03000123  RH  034%=      5-min Rain = 0
KAM1 200221Z 19008KT 30/12 A2991 RMK A01 T03000123  RH  034%=      5-min Rain = 0
KAM1 200222Z 19008KT 30/12 A2991 RMK A01 T03010124  RH  034%=      5-min Rain = 0
KAM1 200223Z 19008KT 30/12 A2991 RMK A01 T03010124  RH  034%=      5-min Rain = 0
KAM1 200224Z 18008KT 30/12 A2991 RMK A01 T03010124  RH  034%=      5-min Rain = 0
KAM1 200225Z 18008KT 30/12 A2991 RMK A01 T03000124  RH  034%=      5-min Rain = 0
KAM1 200226Z 18007KT 30/12 A2991 RMK A01 T02990124  RH  034%=      5-min Rain = 0
KAM1 200227Z 18008KT 30/13 A2991 RMK A01 T02990125  RH  034%=      5-min Rain = 0
KAM1 200228Z 18007KT 30/13 A2991 RMK A01 T02980125  RH  034%=      5-min Rain = 0
KAM1 200229Z 18008KT 30/13 A2991 RMK A01 T02980125  RH  035%=      5-min Rain = 0
KAM1 200230Z 18008KT 30/13 A2991 RMK A01 T02970125  RH  035%=      5-min Rain = 0
KAM1 200231Z 18008KT 30/13 A2991 RMK A01 T02970126  RH  035%=      5-min Rain = 0
KAM1 200232Z 18009KT 30/13 A2991 RMK A01 T02970126  RH  035%=      5-min Rain = 0
KAM1 200233Z 19008KT 30/13 A2991 RMK A01 T02980126  RH  035%=      5-min Rain = 0
KAM1 200234Z 20009KT 30/13 A2991 RMK A01 T02990126  RH  035%=      5-min Rain = 0
KAM1 200235Z 21009KT 30/13 A2991 RMK A01 T02990126  RH  035%=      5-min Rain = 0
KAM1 200236Z 21009KT 30/13 A2991 RMK A01 T02980127  RH  035%=      5-min Rain = 0
KAM1 200237Z 20010KT 30/13 A2991 RMK A01 T02960126  RH  035%=      5-min Rain = 0
KAM1 200238Z 19010KT 30/13 A2991 RMK A01 T02960125  RH  035%=      5-min Rain = 0
KAM1 200239Z 19010KT 30/13 A2991 RMK A01 T02970125  RH  035%=      5-min Rain = 0
KAM1 200240Z 18011KT 30/13 A2991 RMK A01 T02990125  RH  034%=      5-min Rain = 0
KAM1 200241Z 18011KT 30/13 A2991 RMK A01 T03000126  RH  034%=      5-min Rain = 0
KAM1 200242Z 18011KT 30/13 A2991 RMK A01 T03010126  RH  034%=      5-min Rain = 0
KAM1 200243Z 18011KT 30/13 A2991 RMK A01 T03030126  RH  034%=      5-min Rain = 0
KAM1 200244Z 17010KT 30/13 A2991 RMK A01 T03040126  RH  034%=      5-min Rain = 0
KAM1 200245Z 17011KT 31/13 A2991 RMK A01 T03050126  RH  033%=      5-min Rain = 0
KAM1 200246Z 17010KT 31/13 A2991 RMK A01 T03050126  RH  033%=      5-min Rain = 0
KAM1 200247Z 17010KT 31/13 A2991 RMK A01 T03050126  RH  033%=      5-min Rain = 0
KAM1 200248Z 16011KT 31/13 A2991 RMK A01 T03050127  RH  033%=      5-min Rain = 0
KAM1 200249Z 17011KT 31/13 A2991 RMK A01 T03050126  RH  033%=      5-min Rain = 0
KAM1 200250Z 16011KT 31/13 A2991 RMK A01 T03050126  RH  034%=      5-min Rain = 0
KAM1 200251Z 16011KT 30/13 A2991 RMK A01 T03040126  RH  034%=      5-min Rain = 0
KAM1 200252Z 17011KT 30/13 A2991 RMK A01 T03040127  RH  034%=      5-min Rain = 0
KAM1 200253Z 17011KT 30/13 A2991 RMK A01 T03040127  RH  034%=      5-min Rain = 0
KAM1 200254Z 17011KT 30/13 A2991 RMK A01 T03040127  RH  034%=      5-min Rain = 0
KAM1 200255Z 17010KT 30/13 A2991 RMK A01 T03040127  RH  034%=      5-min Rain = 0
KAM1 200256Z 17011KT 30/13 A2991 RMK A01 T03030127  RH  034%=      5-min Rain = 0
KAM1 200257Z 17010KT 30/13 A2991 RMK A01 T03020127  RH  034%=      5-min Rain = 0
KAM1 200258Z 17012KT 30/13 A2991 RMK A01 T03020127  RH  034%=      5-min Rain = 0
KAM1 200259Z 18010KT 30/13 A2991 RMK A01 T03020128  RH  034%=      5-min Rain = 0
KAM1 200300Z 17011KT 30/13 A2991 RMK A01 T03010128  RH  035%=      5-min Rain = 0
KAM1 200301Z 17011KT 30/13 A2991 RMK A01 T03000128  RH  035%=      5-min Rain = 0
KAM1 200302Z 17010KT 30/13 A2991 RMK A01 T02990128  RH  035%=      5-min Rain = 0
KAM1 200303Z 17009KT 30/13 A2991 RMK A01 T02990128  RH  035%=      5-min Rain = 0
KAM1 200304Z 17010KT 30/13 A2991 RMK A01 T02980128  RH  035%=      5-min Rain = 0
KAM1 200305Z 17011KT 30/13 A2991 RMK A01 T02980129  RH  035%=      5-min Rain = 0
KAM1 200306Z 17010KT 30/13 A2992 RMK A01 T02980129  RH  036%=      5-min Rain = 0
KAM1 200307Z 17010KT 30/13 A2992 RMK A01 T02970129  RH  036%=      5-min Rain = 0
KAM1 200308Z 17010KT 30/13 A2992 RMK A01 T02960129  RH  036%=      5-min Rain = 0
KAM1 200309Z 17011KT 30/13 A2992 RMK A01 T02950129  RH  036%=      5-min Rain = 0
KAM1 200310Z 17010KT 30/13 A2992 RMK A01 T02950129  RH  036%=      5-min Rain = 0
KAM1 200311Z 17010KT 29/13 A2992 RMK A01 T02940129  RH  036%=      5-min Rain = 0
KAM1 200312Z 17010KT 29/13 A2992 RMK A01 T02930129  RH  037%=      5-min Rain = 0
KAM1 200313Z 17010KT 29/13 A2992 RMK A01 T02930130  RH  037%=      5-min Rain = 0
KAM1 200314Z 17010KT 29/13 A2992 RMK A01 T02920130  RH  037%=      5-min Rain = 0
KAM1 200315Z 17010KT 29/13 A2992 RMK A01 T02920130  RH  037%=      5-min Rain = 0
KAM1 200316Z 17010KT 29/13 A2992 RMK A01 T02920130  RH  037%=      5-min Rain = 0
KAM1 200317Z 17011KT 29/13 A2992 RMK A01 T02920130  RH  037%=      5-min Rain = 0
KAM1 200318Z 17010KT 29/13 A2992 RMK A01 T02920130  RH  037%=      5-min Rain = 0
KAM1 200319Z 17011KT 29/13 A2992 RMK A01 T02920131  RH  037%=      5-min Rain = 0
KAM1 200320Z 17012KT 29/13 A2992 RMK A01 T02920130  RH  037%=      5-min Rain = 0
KAM1 200321Z 17010KT 29/13 A2992 RMK A01 T02930131  RH  037%=      5-min Rain = 0
KAM1 200322Z 17011KT 29/13 A2992 RMK A01 T02930131  RH  037%=      5-min Rain = 0
KAM1 200323Z 17010KT 29/13 A2992 RMK A01 T02930131  RH  037%=      5-min Rain = 0
KAM1 200324Z 17009KT 29/13 A2992 RMK A01 T02920131  RH  037%=      5-min Rain = 0
KAM1 200325Z 17010KT 29/13 A2992 RMK A01 T02910131  RH  037%=      5-min Rain = 0
KAM1 200326Z 17011KT 29/13 A2992 RMK A01 T02910132  RH  038%=      5-min Rain = 0
KAM1 200327Z 17010KT 29/13 A2992 RMK A01 T02910132  RH  038%=      5-min Rain = 0
KAM1 200328Z 17010KT 29/13 A2992 RMK A01 T02910132  RH  038%=      5-min Rain = 0
KAM1 200329Z 17010KT 29/13 A2992 RMK A01 T02910132  RH  038%=      5-min Rain = 0
KAM1 200330Z 17011KT 29/13 A2992 RMK A01 T02910132  RH  038%=      5-min Rain = 0
KAM1 200331Z 17009KT 29/13 A2993 RMK A01 T02910132  RH  038%=      5-min Rain = 0
KAM1 200332Z 17010KT 29/13 A2993 RMK A01 T02910132  RH  038%=      5-min Rain = 0
KAM1 200333Z 17011KT 29/13 A2992 RMK A01 T02910132  RH  038%=      5-min Rain = 0
KAM1 200334Z 17010KT 29/13 A2992 RMK A01 T02910132  RH  038%=      5-min Rain = 0
KAM1 200335Z 17011KT 29/13 A2992 RMK A01 T02920132  RH  038%=      5-min Rain = 0
KAM1 200336Z 17011KT 29/13 A2993 RMK A01 T02920133  RH  038%=      5-min Rain = 0
KAM1 200337Z 17010KT 29/13 A2993 RMK A01 T02920132  RH  037%=      5-min Rain = 0
KAM1 200338Z 17010KT 29/13 A2993 RMK A01 T02920132  RH  037%=      5-min Rain = 0
KAM1 200339Z 17012KT 29/13 A2993 RMK A01 T02920132  RH  037%=      5-min Rain = 0
KAM1 200340Z 18011KT 29/13 A2993 RMK A01 T02930132  RH  037%=      5-min Rain = 0
KAM1 200341Z 17010KT 29/13 A2993 RMK A01 T02930132  RH  037%=      5-min Rain = 0
KAM1 200342Z 17010KT 29/13 A2993 RMK A01 T02930132  RH  037%=      5-min Rain = 0
KAM1 200343Z 17009KT 29/13 A2993 RMK A01 T02930132  RH  037%=      5-min Rain = 0
KAM1 200344Z 17011KT 29/13 A2993 RMK A01 T02930132  RH  037%=      5-min Rain = 0
KAM1 200345Z 17009KT 29/13 A2993 RMK A01 T02930132  RH  037%=      5-min Rain = 0
KAM1 200346Z 17011KT 29/13 A2993 RMK A01 T02920132  RH  037%=      5-min Rain = 0
KAM1 200347Z 17011KT 29/13 A2993 RMK A01 T02930131  RH  037%=      5-min Rain = 0
KAM1 200348Z 17010KT 29/13 A2993 RMK A01 T02940131  RH  037%=      5-min Rain = 0
KAM1 200349Z 17011KT 29/13 A2993 RMK A01 T02940131  RH  037%=      5-min Rain = 0
KAM1 200350Z 17011KT 29/13 A2993 RMK A01 T02940131  RH  037%=      5-min Rain = 0
KAM1 200351Z 17012KT 30/13 A2993 RMK A01 T02950131  RH  037%=      5-min Rain = 0
KAM1 200352Z 17012KT 30/13 A2993 RMK A01 T02960131  RH  036%=      5-min Rain = 0
KAM1 200353Z 17011KT 30/13 A2993 RMK A01 T02950130  RH  036%=      5-min Rain = 0
KAM1 200354Z 17011KT 30/13 A2993 RMK A01 T02960131  RH  036%=      5-min Rain = 0
KAM1 200355Z 17011KT 30/13 A2993 RMK A01 T02960131  RH  036%=      5-min Rain = 0
KAM1 200356Z 17010KT 30/13 A2993 RMK A01 T02960131  RH  036%=      5-min Rain = 0
KAM1 200357Z 17011KT 30/13 A2993 RMK A01 T02950130  RH  036%=      5-min Rain = 0
KAM1 200358Z 17011KT 30/13 A2993 RMK A01 T02950130  RH  036%=      5-min Rain = 0
KAM1 200359Z 18011KT 30/13 A2993 RMK A01 T02950130  RH  036%=      5-min Rain = 0
KAM1 200400Z 17011KT 30/13 A2993 RMK A01 T02950131  RH  036%=      5-min Rain = 0
KAM1 200401Z 17010KT 30/13 A2993 RMK A01 T02950130  RH  036%=      5-min Rain = 0
KAM1 200402Z 17012KT 30/13 A2993 RMK A01 T02950130  RH  036%=      5-min Rain = 0
KAM1 200403Z 17014KT 30/13 A2993 RMK A01 T02950130  RH  036%=      5-min Rain = 0
KAM1 200404Z 17012KT 30/13 A2993 RMK A01 T02960129  RH  036%=      5-min Rain = 0
KAM1 200405Z 17012KT 30/13 A2993 RMK A01 T02960130  RH  036%=      5-min Rain = 0
KAM1 200406Z 17010KT 30/13 A2993 RMK A01 T02970130  RH  036%=      5-min Rain = 0
KAM1 200407Z 17011KT 30/13 A2993 RMK A01 T02960130  RH  036%=      5-min Rain = 0
KAM1 200408Z 17011KT 30/13 A2993 RMK A01 T02960130  RH  036%=      5-min Rain = 0
KAM1 200409Z 17012KT 30/13 A2993 RMK A01 T02960130  RH  036%=      5-min Rain = 0
KAM1 200410Z 17011KT 30/13 A2993 RMK A01 T02950130  RH  036%=      5-min Rain = 0
KAM1 200411Z 17012KT 30/13 A2993 RMK A01 T02950129  RH  036%=      5-min Rain = 0
KAM1 200412Z 17013KT 30/13 A2993 RMK A01 T02950130  RH  036%=      5-min Rain = 0
KAM1 200413Z 18011KT 30/13 A2993 RMK A01 T02950129  RH  036%=      5-min Rain = 0
KAM1 200414Z 17012KT 30/13 A2993 RMK A01 T02950129  RH  036%=      5-min Rain = 0
KAM1 200415Z 17012KT 30/13 A2993 RMK A01 T02950129  RH  036%=      5-min Rain = 0
KAM1 200416Z 17011KT 30/13 A2993 RMK A01 T02950129  RH  036%=      5-min Rain = 0
KAM1 200417Z 17013KT 30/13 A2994 RMK A01 T02950129  RH  036%=      5-min Rain = 0
KAM1 200418Z 17012KT 30/13 A2994 RMK A01 T02950129  RH  036%=      5-min Rain = 0
KAM1 200419Z 17012KT 30/13 A2994 RMK A01 T02950129  RH  036%=      5-min Rain = 0
KAM1 200420Z 17010KT 30/13 A2994 RMK A01 T02950129  RH  036%=      5-min Rain = 0
KAM1 200421Z 17012KT 29/13 A2994 RMK A01 T02940129  RH  036%=      5-min Rain = 0
KAM1 200422Z 17011KT 29/13 A2994 RMK A01 T02940129  RH  036%=      5-min Rain = 0
KAM1 200423Z 18012KT 29/13 A2994 RMK A01 T02930129  RH  036%=      5-min Rain = 0
KAM1 200424Z 17013KT 29/13 A2994 RMK A01 T02930129  RH  036%=      5-min Rain = 0
KAM1 200425Z 17012KT 29/13 A2994 RMK A01 T02940129  RH  036%=      5-min Rain = 0
KAM1 200426Z 18011KT 29/13 A2994 RMK A01 T02940129  RH  036%=      5-min Rain = 0
KAM1 200427Z 17012KT 29/13 A2994 RMK A01 T02940129  RH  036%=      5-min Rain = 0
KAM1 200428Z 18012KT 29/13 A2994 RMK A01 T02940129  RH  036%=      5-min Rain = 0
KAM1 200429Z 18013KT 29/13 A2994 RMK A01 T02940129  RH  036%=      5-min Rain = 0
KAM1 200430Z 18010KT 29/13 A2994 RMK A01 T02940129  RH  036%=      5-min Rain = 0
KAM1 200431Z 18012KT 29/13 A2994 RMK A01 T02930129  RH  037%=      5-min Rain = 0
KAM1 200432Z 18013KT 29/13 A2994 RMK A01 T02920129  RH  037%=      5-min Rain = 0
KAM1 200433Z 18011KT 29/13 A2994 RMK A01 T02920129  RH  037%=      5-min Rain = 0
KAM1 200434Z 18012KT 29/13 A2994 RMK A01 T02920129  RH  037%=      5-min Rain = 0
KAM1 200435Z 18011KT 29/13 A2994 RMK A01 T02920129  RH  037%=      5-min Rain = 0
KAM1 200436Z 18013KT 29/13 A2994 RMK A01 T02920129  RH  037%=      5-min Rain = 0
KAM1 200437Z 18012KT 29/13 A2994 RMK A01 T02920129  RH  037%=      5-min Rain = 0
KAM1 200438Z 18010KT 29/13 A2994 RMK A01 T02930129  RH  037%=      5-min Rain = 0
KAM1 200439Z 18012KT 29/13 A2994 RMK A01 T02930129  RH  037%=      5-min Rain = 0
KAM1 200440Z 18011G17KT 29/13 A2994 RMK A01 T02920130  RH  037%=      5-min Rain = 0
KAM1 200441Z 18013G19KT 29/13 A2994 RMK A01 T02920129  RH  037%=      5-min Rain = 0
KAM1 200442Z 17012KT 29/13 A2994 RMK A01 T02930130  RH  037%=      5-min Rain = 0
KAM1 200443Z 18014KT 29/13 A2994 RMK A01 T02930130  RH  037%=      5-min Rain = 0
KAM1 200444Z 18012G17KT 29/13 A2994 RMK A01 T02930130  RH  037%=      5-min Rain = 0
KAM1 200445Z 18012KT 29/13 A2994 RMK A01 T02930130  RH  037%=      5-min Rain = 0
KAM1 200446Z 18013KT 29/13 A2994 RMK A01 T02930130  RH  037%=      5-min Rain = 0
KAM1 200447Z 18013KT 29/13 A2994 RMK A01 T02940130  RH  037%=      5-min Rain = 0
KAM1 200448Z 18011KT 29/13 A2994 RMK A01 T02930130  RH  037%=      5-min Rain = 0
KAM1 200449Z 18014KT 29/13 A2994 RMK A01 T02940130  RH  037%=      5-min Rain = 0
KAM1 200450Z 18014KT 29/13 A2994 RMK A01 T02940130  RH  037%=      5-min Rain = 0
KAM1 200451Z 18013KT 30/13 A2994 RMK A01 T02950130  RH  036%=      5-min Rain = 0
KAM1 200452Z 18011KT 30/13 A2994 RMK A01 T02950130  RH  036%=      5-min Rain = 0
KAM1 200453Z 18011KT 29/13 A2994 RMK A01 T02940131  RH  037%=      5-min Rain = 0
KAM1 200454Z 18013KT 29/13 A2994 RMK A01 T02940131  RH  037%=      5-min Rain = 0
KAM1 200455Z 18012KT 29/13 A2994 RMK A01 T02930131  RH  037%=      5-min Rain = 0
KAM1 200456Z 18012KT 29/13 A2994 RMK A01 T02930130  RH  037%=      5-min Rain = 0
KAM1 200457Z 18013KT 29/13 A2994 RMK A01 T02930131  RH  037%=      5-min Rain = 0
KAM1 200458Z 18011KT 29/13 A2994 RMK A01 T02930131  RH  037%=      5-min Rain = 0
KAM1 200459Z 18011KT 29/13 A2994 RMK A01 T02930131  RH  037%=      5-min Rain = 0

Page generated in 0.0731 seconds.